DLH48FD EDDF-SBGL
Flight info
| Callsign | DLH48FD |
|---|---|
| Flight time | 11h 26m |
| Altitude | 29000 |
| Route | ANEKI2L ANEKI Y163 HERBI Y164 OLBEN/N0490F310 N869 NINTU DCT PIMAK DCT TITVA DCT GAI DCT PERDU DCT KONKE Z245 CJN N10 SVL N857 KORNO UN857 TOVRA/N0489F330 UN857 TERTO N857 DEREV/N0494F320 N857 ETIBA/N0494F340 N857 GUNET UN857 PUGUN/N0491F360 UN857 MOLSU |
| Aircraft | A346/H-SDE2E3FGHIJ3J4J5M1RWXY/LB1D1 |
Departure
| Time | 2026-04-17 22:43 |
|---|---|
| Airport | Frankfurt Main Airport (EDDF) |
Arrival
| Time | 2026-04-18 10:10 |
|---|---|
| Airport | Rio Galeão – Tom Jobim International Airport (SBGL) |
| Time | Latitude | Longitude | Altitude | Speed | Heading |
|---|---|---|---|---|---|
| 2026-04-17 22:03 | 50.04593 | 8.57048 | 366 ft | 0 kts | 59° |
| 2026-04-17 22:29 | 50.04586 | 8.57029 | 369 ft | 4 kts | 58° |
| 2026-04-17 22:29 | 50.04572 | 8.56993 | 368 ft | 4 kts | 65° |
| 2026-04-17 22:30 | 50.04567 | 8.56963 | 370 ft | 4 kts | 97° |
| 2026-04-17 22:30 | 50.04572 | 8.56933 | 373 ft | 4 kts | 118° |
| 2026-04-17 22:30 | 50.04584 | 8.56912 | 372 ft | 4 kts | 156° |
| 2026-04-17 22:30 | 50.04601 | 8.56909 | 372 ft | 3 kts | 192° |
| 2026-04-17 22:31 | 50.04622 | 8.56917 | 368 ft | 4 kts | 196° |
| 2026-04-17 22:31 | 50.04647 | 8.56930 | 368 ft | 4 kts | 201° |
| 2026-04-17 22:31 | 50.04666 | 8.56942 | 369 ft | 0 kts | 203° |
| 2026-04-17 22:34 | 50.04662 | 8.56940 | 370 ft | 1 kts | 203° |
| 2026-04-17 22:34 | 50.04644 | 8.56930 | 368 ft | 5 kts | 197° |
| 2026-04-17 22:35 | 50.04601 | 8.56912 | 372 ft | 7 kts | 196° |
| 2026-04-17 22:35 | 50.04565 | 8.56897 | 372 ft | 2 kts | 195° |
| 2026-04-17 22:35 | 50.04538 | 8.56886 | 367 ft | 8 kts | 193° |
| 2026-04-17 22:35 | 50.04470 | 8.56833 | 372 ft | 13 kts | 225° |
| 2026-04-17 22:36 | 50.04422 | 8.56708 | 366 ft | 14 kts | 249° |
| 2026-04-17 22:36 | 50.04386 | 8.56562 | 369 ft | 15 kts | 249° |
| 2026-04-17 22:36 | 50.04349 | 8.56405 | 368 ft | 16 kts | 250° |
| 2026-04-17 22:36 | 50.04311 | 8.56242 | 369 ft | 16 kts | 250° |
| 2026-04-17 22:37 | 50.04272 | 8.56077 | 364 ft | 17 kts | 250° |
| 2026-04-17 22:37 | 50.04231 | 8.55904 | 366 ft | 17 kts | 249° |
| 2026-04-17 22:37 | 50.04188 | 8.55733 | 365 ft | 17 kts | 249° |
| 2026-04-17 22:37 | 50.04144 | 8.55558 | 364 ft | 17 kts | 249° |
| 2026-04-17 22:38 | 50.04103 | 8.55387 | 364 ft | 17 kts | 250° |
| 2026-04-17 22:38 | 50.04064 | 8.55221 | 363 ft | 16 kts | 250° |
| 2026-04-17 22:38 | 50.04024 | 8.55052 | 365 ft | 17 kts | 250° |
| 2026-04-17 22:38 | 50.03984 | 8.54880 | 364 ft | 17 kts | 250° |
| 2026-04-17 22:39 | 50.03942 | 8.54701 | 359 ft | 18 kts | 250° |
| 2026-04-17 22:39 | 50.03899 | 8.54519 | 362 ft | 18 kts | 250° |
| 2026-04-17 22:39 | 50.03786 | 8.54167 | 360 ft | 18 kts | 247° |
| 2026-04-17 22:40 | 50.03742 | 8.53989 | 356 ft | 18 kts | 249° |
| 2026-04-17 22:40 | 50.03698 | 8.53809 | 352 ft | 18 kts | 250° |
| 2026-04-17 22:40 | 50.03655 | 8.53626 | 357 ft | 18 kts | 249° |
| 2026-04-17 22:40 | 50.03610 | 8.53443 | 354 ft | 18 kts | 249° |
| 2026-04-17 22:41 | 50.03565 | 8.53258 | 356 ft | 18 kts | 249° |
| 2026-04-17 22:41 | 50.03520 | 8.53072 | 355 ft | 18 kts | 249° |
| 2026-04-17 22:41 | 50.03474 | 8.52884 | 352 ft | 19 kts | 248° |
| 2026-04-17 22:41 | 50.03430 | 8.52716 | 352 ft | 15 kts | 246° |
| 2026-04-17 22:42 | 50.03359 | 8.52607 | 353 ft | 15 kts | 195° |
| 2026-04-17 22:42 | 50.03170 | 8.52597 | 347 ft | 52 kts | 178° |
| 2026-04-17 22:42 | 50.02586 | 8.52604 | 343 ft | 114 kts | 180° |
| 2026-04-17 22:42 | 50.01610 | 8.52613 | 352 ft | 165 kts | 180° |
| 2026-04-17 22:43 | 50.00326 | 8.52622 | 439 ft | 197 kts | 180° |
| 2026-04-17 22:43 | 49.98935 | 8.52627 | 937 ft | 201 kts | 180° |
| 2026-04-17 22:43 | 49.97539 | 8.52661 | 1591 ft | 200 kts | 178° |
| 2026-04-17 22:43 | 49.96153 | 8.52772 | 2246 ft | 196 kts | 175° |
| 2026-04-17 22:44 | 49.94774 | 8.52938 | 2628 ft | 204 kts | 175° |
| 2026-04-17 22:44 | 49.93318 | 8.53111 | 2912 ft | 216 kts | 176° |
| 2026-04-17 22:44 | 49.91779 | 8.53241 | 3203 ft | 228 kts | 177° |
| 2026-04-17 22:44 | 49.90150 | 8.53334 | 3556 ft | 238 kts | 178° |
| 2026-04-17 22:45 | 49.88484 | 8.53429 | 4133 ft | 240 kts | 178° |
| 2026-04-17 22:45 | 49.86822 | 8.53550 | 4776 ft | 239 kts | 177° |
| 2026-04-17 22:45 | 49.85168 | 8.53691 | 5389 ft | 237 kts | 178° |
| 2026-04-17 22:45 | 49.83547 | 8.53774 | 6011 ft | 235 kts | 179° |
| 2026-04-17 22:46 | 49.81921 | 8.53828 | 6627 ft | 234 kts | 179° |
| 2026-04-17 22:46 | 49.80272 | 8.53909 | 7152 ft | 234 kts | 178° |
| 2026-04-17 22:46 | 49.78656 | 8.54028 | 7626 ft | 237 kts | 180° |
| 2026-04-17 22:46 | 49.76971 | 8.53930 | 8046 ft | 243 kts | 186° |
| 2026-04-17 22:47 | 49.75264 | 8.53669 | 8325 ft | 255 kts | 186° |
| 2026-04-17 22:47 | 49.73457 | 8.53425 | 8638 ft | 267 kts | 185° |
| 2026-04-17 22:47 | 49.71561 | 8.53222 | 8939 ft | 278 kts | 184° |
| 2026-04-17 22:47 | 49.69585 | 8.53006 | 9219 ft | 292 kts | 185° |
| 2026-04-17 22:48 | 49.67534 | 8.52748 | 9682 ft | 296 kts | 185° |
| 2026-04-17 22:48 | 49.65484 | 8.52473 | 10303 ft | 296 kts | 185° |
| 2026-04-17 22:48 | 49.63406 | 8.52199 | 10675 ft | 305 kts | 186° |
| 2026-04-17 22:48 | 49.61245 | 8.51911 | 10902 ft | 318 kts | 186° |
| 2026-04-17 22:49 | 49.59002 | 8.51612 | 11130 ft | 330 kts | 186° |
| 2026-04-17 22:49 | 49.56673 | 8.51303 | 11354 ft | 342 kts | 186° |
| 2026-04-17 22:49 | 49.54253 | 8.50983 | 11581 ft | 355 kts | 186° |
| 2026-04-17 22:49 | 49.51751 | 8.50653 | 11811 ft | 367 kts | 186° |
| 2026-04-17 22:50 | 49.49171 | 8.50314 | 12117 ft | 377 kts | 186° |
| 2026-04-17 22:50 | 49.46544 | 8.49971 | 12627 ft | 380 kts | 186° |
| 2026-04-17 22:50 | 49.43903 | 8.49627 | 13186 ft | 382 kts | 186° |
| 2026-04-17 22:50 | 49.41241 | 8.49279 | 13726 ft | 386 kts | 186° |
| 2026-04-17 22:51 | 49.38549 | 8.48926 | 14225 ft | 390 kts | 187° |
| 2026-04-17 22:51 | 49.35824 | 8.48568 | 14714 ft | 393 kts | 187° |
| 2026-04-17 22:51 | 49.33091 | 8.48211 | 15171 ft | 395 kts | 187° |
| 2026-04-17 22:51 | 49.30341 | 8.47853 | 15646 ft | 398 kts | 187° |
| 2026-04-17 22:52 | 49.27571 | 8.47494 | 16111 ft | 401 kts | 187° |
| 2026-04-17 22:52 | 49.24785 | 8.47132 | 16576 ft | 404 kts | 187° |
| 2026-04-17 22:52 | 49.21976 | 8.46766 | 17034 ft | 407 kts | 187° |
| 2026-04-17 22:52 | 49.19145 | 8.46398 | 17479 ft | 410 kts | 187° |
| 2026-04-17 22:53 | 49.16297 | 8.46027 | 17936 ft | 413 kts | 187° |
| 2026-04-17 22:53 | 49.13423 | 8.45655 | 18381 ft | 416 kts | 187° |
| 2026-04-17 22:53 | 49.10532 | 8.45280 | 18784 ft | 418 kts | 187° |
| 2026-04-17 22:53 | 49.07620 | 8.44828 | 19161 ft | 420 kts | 189° |
| 2026-04-17 22:54 | 49.04722 | 8.44128 | 19538 ft | 422 kts | 192° |
| 2026-04-17 22:54 | 49.01844 | 8.43176 | 19923 ft | 424 kts | 195° |
| 2026-04-17 22:54 | 48.98967 | 8.42168 | 20291 ft | 427 kts | 194° |
| 2026-04-17 22:54 | 48.96062 | 8.41153 | 20664 ft | 429 kts | 194° |
| 2026-04-17 22:55 | 48.93147 | 8.40139 | 21038 ft | 432 kts | 194° |
| 2026-04-17 22:55 | 48.90190 | 8.39111 | 21399 ft | 434 kts | 194° |
| 2026-04-17 22:55 | 48.87214 | 8.38079 | 21757 ft | 437 kts | 194° |
| 2026-04-17 22:55 | 48.84240 | 8.37049 | 22111 ft | 439 kts | 194° |
| 2026-04-17 22:56 | 48.81248 | 8.36014 | 22465 ft | 442 kts | 194° |
| 2026-04-17 22:56 | 48.78246 | 8.34973 | 22801 ft | 444 kts | 194° |
| 2026-04-17 22:56 | 48.75232 | 8.33884 | 23132 ft | 447 kts | 195° |
| 2026-04-17 22:56 | 48.72200 | 8.32772 | 23467 ft | 449 kts | 195° |
| 2026-04-17 22:57 | 48.69155 | 8.31653 | 23787 ft | 452 kts | 195° |
| 2026-04-17 22:57 | 48.66089 | 8.30531 | 24054 ft | 454 kts | 195° |
| 2026-04-17 22:57 | 48.63009 | 8.29407 | 24334 ft | 456 kts | 195° |
| 2026-04-17 22:57 | 48.59916 | 8.28282 | 24606 ft | 458 kts | 195° |
| 2026-04-17 22:58 | 48.56819 | 8.27156 | 24872 ft | 460 kts | 195° |
| 2026-04-17 22:58 | 48.53700 | 8.26025 | 25128 ft | 461 kts | 195° |
| 2026-04-17 22:58 | 48.50572 | 8.24893 | 25381 ft | 464 kts | 195° |
| 2026-04-17 22:58 | 48.47427 | 8.23752 | 25653 ft | 465 kts | 195° |
| 2026-04-17 22:59 | 48.44276 | 8.22602 | 25941 ft | 467 kts | 195° |
| 2026-04-17 22:59 | 48.41113 | 8.21445 | 26212 ft | 469 kts | 195° |
| 2026-04-17 22:59 | 48.37934 | 8.20283 | 26476 ft | 471 kts | 195° |
| 2026-04-17 22:59 | 48.34744 | 8.19118 | 26732 ft | 473 kts | 195° |
| 2026-04-17 23:00 | 48.31541 | 8.17952 | 26978 ft | 474 kts | 195° |
| 2026-04-17 23:00 | 48.28332 | 8.16786 | 27206 ft | 476 kts | 195° |
| 2026-04-17 23:00 | 48.25125 | 8.15479 | 27450 ft | 478 kts | 198° |
| 2026-04-17 23:00 | 48.21963 | 8.13927 | 27713 ft | 479 kts | 201° |
| 2026-04-17 23:01 | 48.18883 | 8.12187 | 27980 ft | 480 kts | 202° |
| 2026-04-17 23:01 | 48.15713 | 8.10384 | 28214 ft | 482 kts | 202° |
| 2026-04-17 23:01 | 48.12607 | 8.08625 | 28459 ft | 484 kts | 202° |
| 2026-04-17 23:01 | 48.09455 | 8.06845 | 28696 ft | 486 kts | 202° |
| 2026-04-17 23:02 | 48.06244 | 8.05031 | 28926 ft | 488 kts | 202° |
| 2026-04-17 23:02 | 48.03109 | 8.03253 | 29156 ft | 489 kts | 202° |
| 2026-04-17 23:02 | 47.99926 | 8.01451 | 29398 ft | 491 kts | 202° |
| 2026-04-17 23:02 | 47.96685 | 7.99622 | 29660 ft | 492 kts | 202° |
| 2026-04-17 23:03 | 47.93530 | 7.97845 | 29989 ft | 491 kts | 201° |
| 2026-04-17 23:03 | 47.90332 | 7.96047 | 30313 ft | 491 kts | 201° |
| 2026-04-17 23:03 | 47.87141 | 7.94260 | 30596 ft | 490 kts | 201° |
| 2026-04-17 23:03 | 47.83951 | 7.92478 | 30881 ft | 489 kts | 201° |
| 2026-04-17 23:04 | 47.80768 | 7.90705 | 31168 ft | 488 kts | 201° |
| 2026-04-17 23:04 | 47.77591 | 7.88945 | 31456 ft | 487 kts | 201° |
| 2026-04-17 23:04 | 47.75449 | 7.87760 | 31655 ft | 486 kts | 201° |
| 2026-04-17 23:04 | 47.72286 | 7.86006 | 31920 ft | 485 kts | 201° |
| 2026-04-17 23:05 | 47.69121 | 7.84252 | 32189 ft | 485 kts | 201° |
| 2026-04-17 23:05 | 47.65963 | 7.82502 | 32459 ft | 484 kts | 201° |
| 2026-04-17 23:05 | 47.62858 | 7.80783 | 32708 ft | 483 kts | 201° |
| 2026-04-17 23:05 | 47.59670 | 7.79018 | 32960 ft | 482 kts | 201° |
| 2026-04-17 23:06 | 47.56572 | 7.77304 | 33218 ft | 481 kts | 201° |
| 2026-04-17 23:06 | 47.53439 | 7.75574 | 33465 ft | 480 kts | 201° |
| 2026-04-17 23:06 | 47.50310 | 7.73845 | 33681 ft | 480 kts | 201° |
| 2026-04-17 23:06 | 47.47182 | 7.72121 | 33922 ft | 479 kts | 201° |
| 2026-04-17 23:07 | 47.44063 | 7.70406 | 34153 ft | 479 kts | 201° |
| 2026-04-17 23:07 | 47.40944 | 7.68692 | 34353 ft | 478 kts | 202° |
| 2026-04-17 23:07 | 47.37880 | 7.66813 | 34518 ft | 476 kts | 206° |
| 2026-04-17 23:07 | 47.34932 | 7.64572 | 34661 ft | 475 kts | 211° |
| 2026-04-17 23:08 | 47.32132 | 7.61985 | 34790 ft | 475 kts | 216° |
| 2026-04-17 23:08 | 47.29494 | 7.59072 | 34929 ft | 474 kts | 221° |
| 2026-04-17 23:08 | 47.27034 | 7.55855 | 35056 ft | 472 kts | 226° |
| 2026-04-17 23:08 | 47.24765 | 7.52356 | 35182 ft | 471 kts | 231° |
| 2026-04-17 23:09 | 47.22687 | 7.48631 | 35340 ft | 470 kts | 233° |
| 2026-04-17 23:09 | 47.20669 | 7.44853 | 35501 ft | 469 kts | 233° |
| 2026-04-17 23:09 | 47.18653 | 7.41076 | 35648 ft | 468 kts | 233° |
| 2026-04-17 23:09 | 47.16638 | 7.37318 | 35800 ft | 467 kts | 233° |
| 2026-04-17 23:10 | 47.14622 | 7.33581 | 35963 ft | 466 kts | 233° |
| 2026-04-17 23:10 | 47.12597 | 7.29845 | 36092 ft | 466 kts | 233° |
| 2026-04-17 23:10 | 47.10578 | 7.26124 | 36210 ft | 466 kts | 233° |
| 2026-04-17 23:10 | 47.08555 | 7.22400 | 36197 ft | 466 kts | 233° |
| 2026-04-17 23:11 | 47.04510 | 7.14969 | 36216 ft | 466 kts | 233° |
| 2026-04-17 23:11 | 47.00455 | 7.07543 | 36208 ft | 466 kts | 233° |
| 2026-04-17 23:12 | 46.96400 | 7.00134 | 36200 ft | 466 kts | 233° |
| 2026-04-17 23:12 | 46.92339 | 6.92740 | 36210 ft | 465 kts | 233° |
| 2026-04-17 23:13 | 46.88284 | 6.85372 | 36211 ft | 464 kts | 233° |
| 2026-04-17 23:13 | 46.84227 | 6.78022 | 36211 ft | 464 kts | 233° |
| 2026-04-17 23:14 | 46.80163 | 6.70678 | 36210 ft | 464 kts | 233° |
| 2026-04-17 23:14 | 46.76085 | 6.63350 | 36192 ft | 466 kts | 234° |
| 2026-04-17 23:15 | 46.71949 | 6.56013 | 36191 ft | 470 kts | 232° |
| 2026-04-17 23:15 | 46.67616 | 6.48857 | 36191 ft | 471 kts | 232° |
| 2026-04-17 23:16 | 46.63290 | 6.41730 | 36192 ft | 468 kts | 232° |
| 2026-04-17 23:16 | 46.58971 | 6.34638 | 36190 ft | 468 kts | 232° |
| 2026-04-17 23:17 | 46.54647 | 6.27556 | 36184 ft | 468 kts | 232° |
| 2026-04-17 23:17 | 46.50317 | 6.20485 | 36183 ft | 468 kts | 232° |
| 2026-04-17 23:18 | 46.45986 | 6.13430 | 36180 ft | 468 kts | 232° |
| 2026-04-17 23:18 | 46.41677 | 6.06430 | 36186 ft | 468 kts | 232° |
| 2026-04-17 23:19 | 46.37340 | 5.99398 | 36180 ft | 468 kts | 232° |
| 2026-04-17 23:19 | 46.32998 | 5.92385 | 36178 ft | 466 kts | 232° |
| 2026-04-17 23:20 | 46.28928 | 5.85111 | 36181 ft | 463 kts | 238° |
| 2026-04-17 23:20 | 46.25270 | 5.77443 | 36187 ft | 463 kts | 239° |
| 2026-04-17 23:21 | 46.21629 | 5.69770 | 36186 ft | 463 kts | 239° |
| 2026-04-17 23:21 | 46.17973 | 5.62094 | 36181 ft | 464 kts | 239° |
| 2026-04-17 23:22 | 46.14314 | 5.54433 | 36175 ft | 462 kts | 239° |
| 2026-04-17 23:22 | 46.10662 | 5.46804 | 36175 ft | 461 kts | 239° |
| 2026-04-17 23:23 | 46.07010 | 5.39193 | 36176 ft | 461 kts | 238° |
| 2026-04-17 23:23 | 46.03353 | 5.31595 | 36168 ft | 461 kts | 238° |
| 2026-04-17 23:24 | 45.99687 | 5.23999 | 36176 ft | 462 kts | 238° |
| 2026-04-17 23:24 | 45.96015 | 5.16411 | 36179 ft | 462 kts | 238° |
| 2026-04-17 23:25 | 45.92344 | 5.08843 | 36179 ft | 460 kts | 238° |
| 2026-04-17 23:25 | 45.88685 | 5.01324 | 36183 ft | 459 kts | 238° |
| 2026-04-17 23:26 | 45.85022 | 4.93814 | 36177 ft | 459 kts | 238° |
| 2026-04-17 23:26 | 45.81347 | 4.86300 | 36183 ft | 460 kts | 238° |
| 2026-04-17 23:27 | 45.77663 | 4.78789 | 36185 ft | 460 kts | 238° |
| 2026-04-17 23:27 | 45.73975 | 4.71289 | 36185 ft | 460 kts | 238° |
| 2026-04-17 23:28 | 45.70298 | 4.63831 | 36196 ft | 457 kts | 238° |
| 2026-04-17 23:28 | 45.66626 | 4.56402 | 36200 ft | 457 kts | 238° |
| 2026-04-17 23:29 | 45.62946 | 4.48977 | 36209 ft | 457 kts | 237° |
| 2026-04-17 23:29 | 45.59259 | 4.41558 | 36210 ft | 457 kts | 237° |
| 2026-04-17 23:30 | 45.55570 | 4.34155 | 36210 ft | 457 kts | 237° |
| 2026-04-17 23:30 | 45.51880 | 4.26766 | 36209 ft | 457 kts | 237° |
| 2026-04-17 23:31 | 45.48192 | 4.19400 | 36208 ft | 455 kts | 237° |
| 2026-04-17 23:31 | 45.44500 | 4.12049 | 36211 ft | 456 kts | 237° |
| 2026-04-17 23:32 | 45.40830 | 4.04762 | 36215 ft | 456 kts | 237° |
| 2026-04-17 23:32 | 45.37097 | 3.97463 | 36216 ft | 456 kts | 235° |
| 2026-04-17 23:33 | 45.32958 | 3.90582 | 36219 ft | 458 kts | 231° |
| 2026-04-17 23:33 | 45.28679 | 3.83865 | 36227 ft | 456 kts | 230° |
| 2026-04-17 23:34 | 45.24441 | 3.77223 | 36220 ft | 452 kts | 230° |
| 2026-04-17 23:34 | 45.20209 | 3.70614 | 36220 ft | 452 kts | 230° |
| 2026-04-17 23:35 | 45.15970 | 3.64008 | 36220 ft | 452 kts | 230° |
| 2026-04-17 23:35 | 45.11732 | 3.57417 | 36212 ft | 453 kts | 230° |
| 2026-04-17 23:36 | 45.07478 | 3.50819 | 36227 ft | 453 kts | 230° |
| 2026-04-17 23:36 | 45.03222 | 3.44236 | 36225 ft | 453 kts | 230° |
| 2026-04-17 23:37 | 44.98963 | 3.37661 | 36229 ft | 453 kts | 230° |
| 2026-04-17 23:37 | 44.94696 | 3.31091 | 36232 ft | 453 kts | 230° |
| 2026-04-17 23:38 | 44.90421 | 3.24522 | 36236 ft | 454 kts | 230° |
| 2026-04-17 23:38 | 44.86141 | 3.17963 | 36239 ft | 454 kts | 230° |
| 2026-04-17 23:39 | 44.81857 | 3.11412 | 36241 ft | 454 kts | 230° |
| 2026-04-17 23:39 | 44.77566 | 3.04867 | 36241 ft | 454 kts | 230° |
| 2026-04-17 23:40 | 44.73290 | 2.98358 | 36241 ft | 452 kts | 230° |
| 2026-04-17 23:40 | 44.69014 | 2.91866 | 36229 ft | 452 kts | 230° |
| 2026-04-17 23:41 | 44.64735 | 2.85384 | 36230 ft | 452 kts | 229° |
| 2026-04-17 23:41 | 44.60481 | 2.78954 | 36217 ft | 452 kts | 229° |
| 2026-04-17 23:42 | 44.56195 | 2.72491 | 36211 ft | 453 kts | 229° |
| 2026-04-17 23:42 | 44.51893 | 2.66019 | 36213 ft | 453 kts | 229° |
| 2026-04-17 23:43 | 44.47603 | 2.59580 | 36214 ft | 451 kts | 229° |
| 2026-04-17 23:43 | 44.43315 | 2.53160 | 36212 ft | 451 kts | 229° |
| 2026-04-17 23:44 | 44.39027 | 2.46754 | 36199 ft | 451 kts | 229° |
| 2026-04-17 23:44 | 44.34729 | 2.40348 | 36210 ft | 452 kts | 229° |
| 2026-04-17 23:45 | 44.28272 | 2.30751 | 36211 ft | 451 kts | 229° |
| 2026-04-17 23:46 | 44.23968 | 2.24371 | 36198 ft | 450 kts | 229° |
| 2026-04-17 23:46 | 44.19668 | 2.18015 | 36195 ft | 450 kts | 229° |
| 2026-04-17 23:47 | 44.15364 | 2.11666 | 36199 ft | 450 kts | 229° |
| 2026-04-17 23:47 | 44.11056 | 2.05324 | 36199 ft | 450 kts | 229° |
| 2026-04-17 23:48 | 44.06745 | 1.98994 | 36201 ft | 450 kts | 229° |
| 2026-04-17 23:48 | 44.02430 | 1.92671 | 36193 ft | 450 kts | 229° |
| 2026-04-17 23:49 | 43.98120 | 1.86371 | 36185 ft | 450 kts | 229° |
| 2026-04-17 23:49 | 43.93791 | 1.80097 | 36186 ft | 450 kts | 228° |
| 2026-04-17 23:50 | 43.89423 | 1.73952 | 36186 ft | 450 kts | 227° |
| 2026-04-17 23:50 | 43.85017 | 1.67777 | 36184 ft | 450 kts | 227° |
| 2026-04-17 23:51 | 43.80615 | 1.61614 | 36176 ft | 450 kts | 227° |
| 2026-04-17 23:51 | 43.76923 | 1.56450 | 36182 ft | 450 kts | 227° |
| 2026-04-17 23:52 | 43.72548 | 1.50342 | 36186 ft | 449 kts | 227° |
| 2026-04-17 23:52 | 43.68149 | 1.44214 | 36184 ft | 448 kts | 227° |
| 2026-04-17 23:53 | 43.63754 | 1.38103 | 36184 ft | 448 kts | 227° |
| 2026-04-17 23:53 | 43.59354 | 1.31999 | 36180 ft | 448 kts | 227° |
| 2026-04-17 23:54 | 43.54947 | 1.25898 | 36186 ft | 448 kts | 227° |
| 2026-04-17 23:54 | 43.50539 | 1.19811 | 36187 ft | 448 kts | 227° |
| 2026-04-17 23:55 | 43.46127 | 1.13731 | 36196 ft | 448 kts | 227° |
| 2026-04-17 23:55 | 43.41716 | 1.07665 | 36181 ft | 448 kts | 227° |
| 2026-04-17 23:56 | 43.37301 | 1.01607 | 36204 ft | 448 kts | 227° |
| 2026-04-17 23:56 | 43.32882 | 0.95558 | 36208 ft | 448 kts | 227° |
| 2026-04-17 23:57 | 43.28461 | 0.89519 | 36199 ft | 448 kts | 227° |
| 2026-04-17 23:57 | 43.24038 | 0.83490 | 36203 ft | 448 kts | 227° |
| 2026-04-17 23:58 | 43.19605 | 0.77461 | 36215 ft | 449 kts | 227° |
| 2026-04-17 23:58 | 43.15168 | 0.71437 | 36209 ft | 448 kts | 227° |
| 2026-04-17 23:59 | 43.10733 | 0.65431 | 36223 ft | 448 kts | 227° |
| 2026-04-17 23:59 | 43.06295 | 0.59434 | 36212 ft | 448 kts | 227° |
| 2026-04-18 00:00 | 43.01854 | 0.53446 | 36226 ft | 448 kts | 227° |
| 2026-04-18 00:00 | 42.97403 | 0.47459 | 36218 ft | 449 kts | 227° |
| 2026-04-18 00:01 | 42.92951 | 0.41479 | 36220 ft | 449 kts | 227° |
| 2026-04-18 00:01 | 42.88526 | 0.35549 | 36232 ft | 448 kts | 227° |
| 2026-04-18 00:02 | 42.84081 | 0.29606 | 36222 ft | 447 kts | 227° |
| 2026-04-18 00:02 | 42.79634 | 0.23674 | 36223 ft | 448 kts | 227° |
| 2026-04-18 00:03 | 42.75181 | 0.17747 | 36221 ft | 447 kts | 227° |
| 2026-04-18 00:03 | 42.70580 | 0.12042 | 36219 ft | 448 kts | 223° |
| 2026-04-18 00:04 | 42.65859 | 0.06496 | 36225 ft | 449 kts | 223° |
| 2026-04-18 00:04 | 42.61139 | 0.00957 | 36189 ft | 448 kts | 223° |
| 2026-04-18 00:05 | 42.56424 | -0.04561 | 36211 ft | 446 kts | 223° |
| 2026-04-18 00:05 | 42.51720 | -0.10052 | 36202 ft | 446 kts | 223° |
| 2026-04-18 00:06 | 42.47010 | -0.15537 | 36200 ft | 446 kts | 223° |
| 2026-04-18 00:06 | 42.42296 | -0.21017 | 36195 ft | 446 kts | 223° |
| 2026-04-18 00:07 | 42.37576 | -0.26492 | 36198 ft | 446 kts | 223° |
| 2026-04-18 00:07 | 42.32860 | -0.31952 | 36190 ft | 446 kts | 223° |
| 2026-04-18 00:08 | 42.28138 | -0.37407 | 36192 ft | 446 kts | 223° |
| 2026-04-18 00:08 | 42.23413 | -0.42855 | 36183 ft | 447 kts | 223° |
| 2026-04-18 00:09 | 42.18682 | -0.48298 | 36173 ft | 446 kts | 223° |
| 2026-04-18 00:09 | 42.13948 | -0.53734 | 36177 ft | 447 kts | 223° |
| 2026-04-18 00:10 | 42.09243 | -0.59126 | 36175 ft | 447 kts | 223° |
| 2026-04-18 00:10 | 42.04506 | -0.64543 | 36168 ft | 447 kts | 223° |
| 2026-04-18 00:11 | 41.99762 | -0.69956 | 36164 ft | 447 kts | 223° |
| 2026-04-18 00:11 | 41.95015 | -0.75364 | 36150 ft | 447 kts | 223° |
| 2026-04-18 00:12 | 41.90272 | -0.80757 | 36151 ft | 446 kts | 223° |
| 2026-04-18 00:12 | 41.85535 | -0.86130 | 36143 ft | 446 kts | 223° |
| 2026-04-18 00:13 | 41.80797 | -0.91493 | 36145 ft | 446 kts | 223° |
| 2026-04-18 00:13 | 41.76054 | -0.96852 | 36150 ft | 446 kts | 222° |
| 2026-04-18 00:14 | 41.71311 | -1.02201 | 36156 ft | 446 kts | 222° |
| 2026-04-18 00:14 | 41.66561 | -1.07545 | 36157 ft | 446 kts | 222° |
| 2026-04-18 00:15 | 41.61811 | -1.12879 | 36158 ft | 446 kts | 222° |
| 2026-04-18 00:15 | 41.57058 | -1.18210 | 36156 ft | 446 kts | 222° |
| 2026-04-18 00:16 | 41.52295 | -1.23538 | 36152 ft | 447 kts | 221° |
| 2026-04-18 00:16 | 41.47526 | -1.28859 | 36165 ft | 447 kts | 221° |
| 2026-04-18 00:17 | 41.42750 | -1.34180 | 36165 ft | 447 kts | 221° |
| 2026-04-18 00:17 | 41.37973 | -1.39491 | 36174 ft | 447 kts | 221° |
| 2026-04-18 00:18 | 41.33191 | -1.44798 | 36170 ft | 447 kts | 221° |
| 2026-04-18 00:18 | 41.28409 | -1.50096 | 36177 ft | 447 kts | 221° |
| 2026-04-18 00:19 | 41.23622 | -1.55387 | 36192 ft | 447 kts | 221° |
| 2026-04-18 00:19 | 41.18829 | -1.60674 | 36189 ft | 447 kts | 221° |
| 2026-04-18 00:20 | 41.14038 | -1.65948 | 36197 ft | 447 kts | 221° |
| 2026-04-18 00:20 | 41.09275 | -1.71184 | 36198 ft | 448 kts | 221° |
| 2026-04-18 00:21 | 41.04475 | -1.76446 | 36209 ft | 448 kts | 221° |
| 2026-04-18 00:21 | 40.99792 | -1.81879 | 36206 ft | 447 kts | 223° |
| 2026-04-18 00:22 | 40.95130 | -1.87351 | 36209 ft | 447 kts | 223° |
| 2026-04-18 00:22 | 40.90470 | -1.92813 | 36213 ft | 448 kts | 223° |
| 2026-04-18 00:23 | 40.85802 | -1.98279 | 36209 ft | 448 kts | 223° |
| 2026-04-18 00:23 | 40.81129 | -2.03736 | 36208 ft | 448 kts | 223° |
| 2026-04-18 00:24 | 40.76449 | -2.09192 | 36212 ft | 448 kts | 223° |
| 2026-04-18 00:24 | 40.71767 | -2.14639 | 36204 ft | 449 kts | 223° |
| 2026-04-18 00:25 | 40.67079 | -2.20073 | 36207 ft | 449 kts | 223° |
| 2026-04-18 00:25 | 40.62387 | -2.25500 | 36210 ft | 448 kts | 222° |
| 2026-04-18 00:26 | 40.57694 | -2.30915 | 36204 ft | 448 kts | 223° |
| 2026-04-18 00:26 | 40.53004 | -2.36319 | 36200 ft | 448 kts | 223° |
| 2026-04-18 00:27 | 40.48315 | -2.41713 | 36196 ft | 448 kts | 223° |
| 2026-04-18 00:27 | 40.43624 | -2.47097 | 36182 ft | 448 kts | 223° |
| 2026-04-18 00:28 | 40.38964 | -2.52540 | 36186 ft | 448 kts | 225° |
| 2026-04-18 00:28 | 40.34674 | -2.58454 | 36185 ft | 447 kts | 230° |
| 2026-04-18 00:29 | 40.30718 | -2.64672 | 36177 ft | 447 kts | 231° |
| 2026-04-18 00:29 | 40.26732 | -2.70929 | 36181 ft | 447 kts | 231° |
| 2026-04-18 00:30 | 40.22742 | -2.77186 | 36175 ft | 447 kts | 231° |
| 2026-04-18 00:30 | 40.18748 | -2.83438 | 36169 ft | 447 kts | 231° |
| 2026-04-18 00:31 | 40.14750 | -2.89685 | 36176 ft | 447 kts | 231° |
| 2026-04-18 00:31 | 40.10751 | -2.95921 | 36169 ft | 447 kts | 231° |
| 2026-04-18 00:32 | 40.06747 | -3.02150 | 36171 ft | 448 kts | 231° |
| 2026-04-18 00:32 | 40.02736 | -3.08378 | 36163 ft | 448 kts | 231° |
| 2026-04-18 00:33 | 39.98729 | -3.14589 | 36149 ft | 447 kts | 231° |
| 2026-04-18 00:33 | 39.94707 | -3.20812 | 36146 ft | 449 kts | 231° |
| 2026-04-18 00:34 | 39.90680 | -3.27028 | 36148 ft | 449 kts | 231° |
| 2026-04-18 00:34 | 39.86644 | -3.33247 | 36149 ft | 449 kts | 231° |
| 2026-04-18 00:35 | 39.82606 | -3.39455 | 36146 ft | 449 kts | 231° |
| 2026-04-18 00:35 | 39.78550 | -3.45637 | 36148 ft | 449 kts | 229° |
| 2026-04-18 00:36 | 39.74216 | -3.51484 | 36142 ft | 449 kts | 226° |
| 2026-04-18 00:36 | 39.69861 | -3.57225 | 36146 ft | 449 kts | 226° |
| 2026-04-18 00:37 | 39.65470 | -3.63001 | 36143 ft | 449 kts | 226° |
| 2026-04-18 00:37 | 39.61073 | -3.68770 | 36152 ft | 449 kts | 226° |
| 2026-04-18 00:38 | 39.56676 | -3.74524 | 36148 ft | 449 kts | 226° |
| 2026-04-18 00:38 | 39.52275 | -3.80278 | 36146 ft | 449 kts | 226° |
| 2026-04-18 00:39 | 39.47870 | -3.86029 | 36148 ft | 450 kts | 226° |
| 2026-04-18 00:39 | 39.43460 | -3.91774 | 36146 ft | 449 kts | 226° |
| 2026-04-18 00:40 | 39.39048 | -3.97510 | 36153 ft | 449 kts | 226° |
| 2026-04-18 00:40 | 39.35380 | -4.02270 | 36163 ft | 449 kts | 226° |
| 2026-04-18 00:41 | 39.30960 | -4.07996 | 36142 ft | 449 kts | 226° |
| 2026-04-18 00:41 | 39.26540 | -4.13712 | 36155 ft | 450 kts | 226° |
| 2026-04-18 00:42 | 39.22109 | -4.19430 | 36136 ft | 450 kts | 226° |
| 2026-04-18 00:42 | 39.17676 | -4.25141 | 36137 ft | 450 kts | 226° |
| 2026-04-18 00:43 | 39.13237 | -4.30849 | 36150 ft | 450 kts | 226° |
| 2026-04-18 00:43 | 39.08797 | -4.36548 | 36150 ft | 450 kts | 226° |
| 2026-04-18 00:44 | 39.04352 | -4.42241 | 36146 ft | 450 kts | 226° |
| 2026-04-18 00:44 | 38.99907 | -4.47925 | 36139 ft | 452 kts | 226° |
| 2026-04-18 00:45 | 38.95439 | -4.53625 | 36142 ft | 452 kts | 226° |
| 2026-04-18 00:45 | 38.90972 | -4.59314 | 36146 ft | 452 kts | 226° |
| 2026-04-18 00:46 | 38.86508 | -4.64987 | 36144 ft | 451 kts | 226° |
| 2026-04-18 00:46 | 38.82040 | -4.70654 | 36144 ft | 451 kts | 226° |
| 2026-04-18 00:47 | 38.77569 | -4.76315 | 36136 ft | 452 kts | 226° |
| 2026-04-18 00:47 | 38.73086 | -4.81979 | 36144 ft | 452 kts | 226° |
| 2026-04-18 00:48 | 38.68604 | -4.87632 | 36143 ft | 452 kts | 226° |
| 2026-04-18 00:48 | 38.64121 | -4.93276 | 36141 ft | 452 kts | 226° |
| 2026-04-18 00:49 | 38.57380 | -5.01727 | 36142 ft | 452 kts | 225° |
| 2026-04-18 00:49 | 38.52609 | -5.06970 | 36130 ft | 453 kts | 219° |
| 2026-04-18 00:50 | 38.47458 | -5.11553 | 36137 ft | 455 kts | 213° |
| 2026-04-18 00:50 | 38.41918 | -5.15478 | 36137 ft | 456 kts | 207° |
| 2026-04-18 00:51 | 38.36202 | -5.19022 | 36136 ft | 456 kts | 208° |
| 2026-04-18 00:51 | 38.30489 | -5.22572 | 36137 ft | 456 kts | 208° |
| 2026-04-18 00:52 | 38.24778 | -5.26111 | 36139 ft | 456 kts | 208° |
| 2026-04-18 00:52 | 38.19063 | -5.29645 | 36137 ft | 457 kts | 208° |
| 2026-04-18 00:53 | 38.13352 | -5.33169 | 36138 ft | 456 kts | 208° |
| 2026-04-18 00:53 | 38.07638 | -5.36688 | 36137 ft | 456 kts | 208° |
| 2026-04-18 00:54 | 38.01912 | -5.40211 | 36130 ft | 456 kts | 208° |
| 2026-04-18 00:54 | 37.96183 | -5.43727 | 36128 ft | 456 kts | 208° |
| 2026-04-18 00:55 | 37.90466 | -5.47230 | 36132 ft | 456 kts | 208° |
| 2026-04-18 00:55 | 37.84746 | -5.50730 | 36123 ft | 456 kts | 207° |
| 2026-04-18 00:56 | 37.79021 | -5.54226 | 36120 ft | 457 kts | 207° |
| 2026-04-18 00:56 | 37.73294 | -5.57718 | 36114 ft | 457 kts | 207° |
| 2026-04-18 00:57 | 37.67559 | -5.61209 | 36110 ft | 457 kts | 207° |
| 2026-04-18 00:57 | 37.61826 | -5.64692 | 36109 ft | 457 kts | 207° |
| 2026-04-18 00:58 | 37.56089 | -5.68171 | 36093 ft | 458 kts | 207° |
| 2026-04-18 00:58 | 37.50342 | -5.71650 | 36103 ft | 459 kts | 207° |
| 2026-04-18 00:59 | 37.44728 | -5.75441 | 36102 ft | 457 kts | 213° |
| 2026-04-18 00:59 | 37.39466 | -5.79908 | 36103 ft | 455 kts | 219° |
| 2026-04-18 01:00 | 37.34602 | -5.84919 | 36102 ft | 455 kts | 222° |
| 2026-04-18 01:00 | 37.29769 | -5.90055 | 36101 ft | 455 kts | 222° |
| 2026-04-18 01:01 | 37.24928 | -5.95191 | 36089 ft | 455 kts | 222° |
| 2026-04-18 01:01 | 37.20085 | -6.00322 | 36086 ft | 455 kts | 221° |
| 2026-04-18 01:02 | 37.15234 | -6.05454 | 36084 ft | 455 kts | 221° |
| 2026-04-18 01:02 | 37.10387 | -6.10570 | 36086 ft | 456 kts | 222° |
| 2026-04-18 01:03 | 37.05536 | -6.15681 | 36087 ft | 456 kts | 222° |
| 2026-04-18 01:03 | 37.00677 | -6.20796 | 36092 ft | 456 kts | 222° |
| 2026-04-18 01:04 | 36.95819 | -6.25902 | 36094 ft | 456 kts | 222° |
| 2026-04-18 01:04 | 36.90959 | -6.31000 | 36094 ft | 456 kts | 222° |
| 2026-04-18 01:05 | 36.86091 | -6.36096 | 36099 ft | 456 kts | 222° |
| 2026-04-18 01:05 | 36.81224 | -6.41183 | 36092 ft | 456 kts | 222° |
| 2026-04-18 01:06 | 36.76348 | -6.46269 | 36101 ft | 456 kts | 222° |
| 2026-04-18 01:06 | 36.71481 | -6.51339 | 36099 ft | 455 kts | 222° |
| 2026-04-18 01:07 | 36.66615 | -6.56399 | 36088 ft | 455 kts | 222° |
| 2026-04-18 01:07 | 36.61748 | -6.61451 | 36083 ft | 455 kts | 222° |
| 2026-04-18 01:08 | 36.56877 | -6.66499 | 36084 ft | 455 kts | 222° |
| 2026-04-18 01:08 | 36.52005 | -6.71538 | 36073 ft | 456 kts | 222° |
| 2026-04-18 01:09 | 36.47125 | -6.76577 | 36074 ft | 456 kts | 221° |
| 2026-04-18 01:09 | 36.42243 | -6.81609 | 36069 ft | 456 kts | 221° |
| 2026-04-18 01:10 | 36.37361 | -6.86631 | 36069 ft | 455 kts | 221° |
| 2026-04-18 01:10 | 36.32489 | -6.91636 | 36061 ft | 454 kts | 221° |
| 2026-04-18 01:11 | 36.27616 | -6.96628 | 36053 ft | 454 kts | 222° |
| 2026-04-18 01:11 | 36.22774 | -7.01586 | 36060 ft | 454 kts | 222° |
| 2026-04-18 01:12 | 36.17896 | -7.06573 | 36062 ft | 455 kts | 222° |
| 2026-04-18 01:12 | 36.13015 | -7.11554 | 36059 ft | 454 kts | 222° |
| 2026-04-18 01:13 | 36.08130 | -7.16530 | 36063 ft | 454 kts | 222° |
| 2026-04-18 01:13 | 36.03246 | -7.21497 | 36059 ft | 454 kts | 222° |
| 2026-04-18 01:14 | 35.98367 | -7.26448 | 36057 ft | 454 kts | 222° |
| 2026-04-18 01:14 | 35.93483 | -7.31399 | 36061 ft | 454 kts | 222° |
| 2026-04-18 01:15 | 35.88602 | -7.36339 | 36062 ft | 454 kts | 222° |
| 2026-04-18 01:15 | 35.83718 | -7.41271 | 36063 ft | 454 kts | 222° |
| 2026-04-18 01:16 | 35.78817 | -7.46182 | 36062 ft | 454 kts | 221° |
| 2026-04-18 01:16 | 35.73908 | -7.51077 | 36063 ft | 454 kts | 221° |
| 2026-04-18 01:17 | 35.68998 | -7.55967 | 36057 ft | 454 kts | 221° |
| 2026-04-18 01:17 | 35.64088 | -7.60851 | 36066 ft | 454 kts | 221° |
| 2026-04-18 01:18 | 35.59179 | -7.65726 | 36063 ft | 453 kts | 221° |
| 2026-04-18 01:18 | 35.54308 | -7.70555 | 36062 ft | 453 kts | 221° |
| 2026-04-18 01:19 | 35.49398 | -7.75415 | 36049 ft | 453 kts | 221° |
| 2026-04-18 01:19 | 35.44491 | -7.80264 | 36057 ft | 453 kts | 221° |
| 2026-04-18 01:20 | 35.39591 | -7.85113 | 36062 ft | 452 kts | 222° |
| 2026-04-18 01:20 | 35.34714 | -7.89994 | 36062 ft | 452 kts | 222° |
| 2026-04-18 01:21 | 35.29838 | -7.94870 | 36063 ft | 452 kts | 222° |
| 2026-04-18 01:21 | 35.24959 | -7.99737 | 36062 ft | 452 kts | 222° |
| 2026-04-18 01:22 | 35.20074 | -8.04597 | 36059 ft | 452 kts | 222° |
| 2026-04-18 01:22 | 35.15197 | -8.09446 | 36064 ft | 452 kts | 222° |
| 2026-04-18 01:23 | 35.10315 | -8.14291 | 36064 ft | 452 kts | 222° |
| 2026-04-18 01:23 | 35.05435 | -8.19125 | 36064 ft | 452 kts | 222° |
| 2026-04-18 01:24 | 35.00548 | -8.23960 | 36068 ft | 452 kts | 222° |
| 2026-04-18 01:24 | 34.95663 | -8.28783 | 36060 ft | 452 kts | 222° |
| 2026-04-18 01:25 | 34.90809 | -8.33567 | 36066 ft | 451 kts | 222° |
| 2026-04-18 01:25 | 34.85931 | -8.38368 | 36068 ft | 450 kts | 222° |
| 2026-04-18 01:26 | 34.81063 | -8.43155 | 36068 ft | 450 kts | 222° |
| 2026-04-18 01:26 | 34.76190 | -8.47939 | 36068 ft | 450 kts | 222° |
| 2026-04-18 01:27 | 34.71320 | -8.52712 | 36067 ft | 450 kts | 222° |
| 2026-04-18 01:27 | 34.66445 | -8.57479 | 36063 ft | 449 kts | 222° |
| 2026-04-18 01:28 | 34.61578 | -8.62233 | 36067 ft | 449 kts | 222° |
| 2026-04-18 01:28 | 34.56708 | -8.66983 | 36070 ft | 449 kts | 222° |
| 2026-04-18 01:29 | 34.51836 | -8.71726 | 36068 ft | 449 kts | 222° |
| 2026-04-18 01:29 | 34.47792 | -8.75657 | 36068 ft | 447 kts | 222° |
| 2026-04-18 01:30 | 34.42936 | -8.80366 | 36070 ft | 447 kts | 222° |
| 2026-04-18 01:30 | 34.38065 | -8.85055 | 36069 ft | 447 kts | 221° |
| 2026-04-18 01:31 | 34.33187 | -8.89739 | 36072 ft | 447 kts | 221° |
| 2026-04-18 01:31 | 34.28303 | -8.94424 | 36073 ft | 447 kts | 221° |
| 2026-04-18 01:32 | 34.23421 | -8.99099 | 36070 ft | 447 kts | 221° |
| 2026-04-18 01:32 | 34.18542 | -9.03766 | 36075 ft | 448 kts | 221° |
| 2026-04-18 01:33 | 34.13656 | -9.08433 | 36058 ft | 448 kts | 221° |
| 2026-04-18 01:33 | 34.08764 | -9.13100 | 36078 ft | 448 kts | 221° |
| 2026-04-18 01:34 | 34.03872 | -9.17756 | 36077 ft | 448 kts | 221° |
| 2026-04-18 01:34 | 33.98986 | -9.22401 | 36076 ft | 448 kts | 221° |
| 2026-04-18 01:35 | 33.94123 | -9.27018 | 36075 ft | 448 kts | 221° |
| 2026-04-18 01:35 | 33.89195 | -9.31689 | 36075 ft | 448 kts | 221° |
| 2026-04-18 01:36 | 33.84330 | -9.36293 | 36068 ft | 448 kts | 221° |
| 2026-04-18 01:36 | 33.79424 | -9.40929 | 36089 ft | 448 kts | 221° |
| 2026-04-18 01:37 | 33.74520 | -9.45556 | 36076 ft | 448 kts | 221° |
| 2026-04-18 01:37 | 33.69613 | -9.50182 | 36073 ft | 447 kts | 221° |
| 2026-04-18 01:38 | 33.64711 | -9.54793 | 36080 ft | 447 kts | 221° |
| 2026-04-18 01:38 | 33.59807 | -9.59398 | 36087 ft | 447 kts | 221° |
| 2026-04-18 01:39 | 33.54907 | -9.63992 | 36071 ft | 446 kts | 221° |
| 2026-04-18 01:39 | 33.50015 | -9.68575 | 36071 ft | 446 kts | 221° |
| 2026-04-18 01:40 | 33.45120 | -9.73153 | 36084 ft | 446 kts | 221° |
| 2026-04-18 01:40 | 33.40225 | -9.77726 | 36078 ft | 446 kts | 221° |
| 2026-04-18 01:41 | 33.35328 | -9.82292 | 36079 ft | 446 kts | 221° |
| 2026-04-18 01:41 | 33.30437 | -9.86849 | 36082 ft | 445 kts | 220° |
| 2026-04-18 01:42 | 33.25555 | -9.91385 | 36071 ft | 443 kts | 221° |
| 2026-04-18 01:42 | 33.20686 | -9.95906 | 36079 ft | 443 kts | 221° |
| 2026-04-18 01:43 | 33.15819 | -10.00418 | 36071 ft | 443 kts | 221° |
| 2026-04-18 01:43 | 33.10946 | -10.04930 | 36084 ft | 443 kts | 221° |
| 2026-04-18 01:44 | 33.06068 | -10.09439 | 36081 ft | 443 kts | 220° |
| 2026-04-18 01:44 | 33.01192 | -10.13938 | 36084 ft | 443 kts | 220° |
| 2026-04-18 01:45 | 32.96314 | -10.18429 | 36079 ft | 443 kts | 220° |
| 2026-04-18 01:45 | 32.91434 | -10.22918 | 36071 ft | 443 kts | 220° |
| 2026-04-18 01:46 | 32.86553 | -10.27396 | 36069 ft | 442 kts | 220° |
| 2026-04-18 01:46 | 32.81677 | -10.31863 | 36076 ft | 442 kts | 220° |
| 2026-04-18 01:47 | 32.76796 | -10.36329 | 36074 ft | 442 kts | 220° |
| 2026-04-18 01:47 | 32.71945 | -10.40763 | 36068 ft | 443 kts | 220° |
| 2026-04-18 01:48 | 32.67058 | -10.45226 | 36075 ft | 443 kts | 220° |
| 2026-04-18 01:48 | 32.62165 | -10.49683 | 36068 ft | 443 kts | 220° |
| 2026-04-18 01:49 | 32.57271 | -10.54135 | 36066 ft | 443 kts | 220° |
| 2026-04-18 01:49 | 32.52375 | -10.58585 | 36073 ft | 443 kts | 220° |
| 2026-04-18 01:50 | 32.47488 | -10.63019 | 36074 ft | 442 kts | 220° |
| 2026-04-18 01:50 | 32.42599 | -10.67448 | 36059 ft | 442 kts | 220° |
| 2026-04-18 01:51 | 32.37704 | -10.71876 | 36059 ft | 443 kts | 220° |
| 2026-04-18 01:51 | 32.32807 | -10.76302 | 36068 ft | 443 kts | 220° |
| 2026-04-18 01:52 | 32.27901 | -10.80729 | 36063 ft | 443 kts | 220° |
| 2026-04-18 01:52 | 32.22996 | -10.85150 | 36061 ft | 443 kts | 219° |
| 2026-04-18 01:53 | 32.18090 | -10.89564 | 36059 ft | 443 kts | 219° |
| 2026-04-18 01:54 | 32.10733 | -10.96175 | 36054 ft | 442 kts | 219° |
| 2026-04-18 01:54 | 32.05843 | -11.00561 | 36054 ft | 442 kts | 219° |
| 2026-04-18 01:55 | 32.00948 | -11.04944 | 36055 ft | 442 kts | 219° |
| 2026-04-18 01:55 | 31.96051 | -11.09323 | 36056 ft | 442 kts | 219° |
| 2026-04-18 01:56 | 31.91156 | -11.13695 | 36059 ft | 442 kts | 219° |
| 2026-04-18 01:56 | 31.86291 | -11.18034 | 36056 ft | 442 kts | 219° |
| 2026-04-18 01:57 | 31.81390 | -11.22399 | 36049 ft | 441 kts | 219° |
| 2026-04-18 01:57 | 31.76493 | -11.26754 | 36050 ft | 441 kts | 219° |
| 2026-04-18 01:58 | 31.71602 | -11.31110 | 36055 ft | 441 kts | 219° |
| 2026-04-18 01:58 | 31.66718 | -11.35465 | 36047 ft | 440 kts | 219° |
| 2026-04-18 01:59 | 31.61834 | -11.39813 | 36048 ft | 440 kts | 219° |
| 2026-04-18 01:59 | 31.56945 | -11.44160 | 36046 ft | 440 kts | 219° |
| 2026-04-18 02:00 | 31.52064 | -11.48493 | 36040 ft | 440 kts | 219° |
| 2026-04-18 02:00 | 31.47181 | -11.52823 | 36045 ft | 440 kts | 219° |
| 2026-04-18 02:01 | 31.42298 | -11.57147 | 36043 ft | 440 kts | 219° |
| 2026-04-18 02:01 | 31.37411 | -11.61468 | 36041 ft | 440 kts | 219° |
| 2026-04-18 02:02 | 31.32524 | -11.65785 | 36041 ft | 440 kts | 219° |
| 2026-04-18 02:02 | 31.27635 | -11.70096 | 36037 ft | 440 kts | 219° |
| 2026-04-18 02:03 | 31.22742 | -11.74407 | 36033 ft | 440 kts | 219° |
| 2026-04-18 02:03 | 31.17840 | -11.78719 | 36034 ft | 441 kts | 219° |
| 2026-04-18 02:04 | 31.12940 | -11.83023 | 36033 ft | 441 kts | 219° |
| 2026-04-18 02:04 | 31.08041 | -11.87322 | 36032 ft | 440 kts | 219° |
| 2026-04-18 02:05 | 31.03142 | -11.91617 | 36032 ft | 440 kts | 219° |
| 2026-04-18 02:05 | 30.98236 | -11.95912 | 36032 ft | 441 kts | 219° |
| 2026-04-18 02:06 | 30.93365 | -12.00169 | 36025 ft | 442 kts | 219° |
| 2026-04-18 02:06 | 30.88444 | -12.04463 | 36032 ft | 442 kts | 219° |
| 2026-04-18 02:07 | 30.83524 | -12.08754 | 36025 ft | 441 kts | 219° |
| 2026-04-18 02:07 | 30.78601 | -12.13037 | 36028 ft | 441 kts | 219° |
| 2026-04-18 02:08 | 30.73676 | -12.17318 | 36025 ft | 442 kts | 219° |
| 2026-04-18 02:08 | 30.68753 | -12.21591 | 36026 ft | 442 kts | 219° |
| 2026-04-18 02:09 | 30.63825 | -12.25864 | 36023 ft | 442 kts | 219° |
| 2026-04-18 02:09 | 30.58884 | -12.30143 | 36022 ft | 443 kts | 219° |
| 2026-04-18 02:10 | 30.53939 | -12.34418 | 36026 ft | 443 kts | 218° |
| 2026-04-18 02:10 | 30.48994 | -12.38686 | 36025 ft | 443 kts | 218° |
| 2026-04-18 02:11 | 30.44044 | -12.42944 | 36027 ft | 443 kts | 218° |
| 2026-04-18 02:11 | 30.39091 | -12.47195 | 36026 ft | 443 kts | 218° |
| 2026-04-18 02:12 | 30.34136 | -12.51443 | 36012 ft | 443 kts | 218° |
| 2026-04-18 02:12 | 30.29198 | -12.55671 | 36021 ft | 445 kts | 218° |
| 2026-04-18 02:13 | 30.24221 | -12.59928 | 36018 ft | 445 kts | 218° |
| 2026-04-18 02:13 | 30.19244 | -12.64179 | 36021 ft | 445 kts | 218° |
| 2026-04-18 02:14 | 30.14267 | -12.68427 | 36026 ft | 444 kts | 218° |
| 2026-04-18 02:14 | 30.09287 | -12.72674 | 36019 ft | 445 kts | 218° |
| 2026-04-18 02:15 | 30.04316 | -12.76924 | 36016 ft | 445 kts | 218° |
| 2026-04-18 02:15 | 29.99347 | -12.81170 | 36017 ft | 444 kts | 218° |
| 2026-04-18 02:16 | 29.94378 | -12.85408 | 36015 ft | 444 kts | 218° |
| 2026-04-18 02:16 | 29.89408 | -12.89642 | 36014 ft | 444 kts | 218° |
| 2026-04-18 02:17 | 29.84436 | -12.93873 | 36015 ft | 444 kts | 218° |
| 2026-04-18 02:17 | 29.79463 | -12.98099 | 36012 ft | 444 kts | 218° |
| 2026-04-18 02:18 | 29.74488 | -13.02320 | 35994 ft | 444 kts | 218° |
| 2026-04-18 02:18 | 29.70343 | -13.05833 | 36005 ft | 445 kts | 218° |
| 2026-04-18 02:19 | 29.65351 | -13.10060 | 36009 ft | 445 kts | 218° |
| 2026-04-18 02:19 | 29.60356 | -13.14283 | 36004 ft | 445 kts | 218° |
| 2026-04-18 02:20 | 29.55367 | -13.18495 | 36001 ft | 444 kts | 218° |
| 2026-04-18 02:20 | 29.50386 | -13.22698 | 35998 ft | 444 kts | 218° |
| 2026-04-18 02:21 | 29.45397 | -13.26900 | 35999 ft | 444 kts | 218° |
| 2026-04-18 02:21 | 29.40411 | -13.31096 | 36005 ft | 445 kts | 218° |
| 2026-04-18 02:22 | 29.35412 | -13.35296 | 35993 ft | 445 kts | 218° |
| 2026-04-18 02:22 | 29.30409 | -13.39494 | 35992 ft | 445 kts | 218° |
| 2026-04-18 02:23 | 29.25411 | -13.43684 | 36013 ft | 445 kts | 218° |
| 2026-04-18 02:23 | 29.20408 | -13.47872 | 36002 ft | 445 kts | 218° |
| 2026-04-18 02:24 | 29.15339 | -13.51947 | 36008 ft | 445 kts | 214° |
| 2026-04-18 02:24 | 29.10123 | -13.55679 | 36007 ft | 445 kts | 214° |
| 2026-04-18 02:25 | 29.04866 | -13.59436 | 36028 ft | 445 kts | 214° |
| 2026-04-18 02:25 | 28.99608 | -13.63187 | 36026 ft | 446 kts | 214° |
| 2026-04-18 02:26 | 28.94347 | -13.66934 | 36016 ft | 446 kts | 214° |
| 2026-04-18 02:26 | 28.89082 | -13.70679 | 36028 ft | 446 kts | 214° |
| 2026-04-18 02:27 | 28.83816 | -13.74419 | 36020 ft | 446 kts | 214° |
| 2026-04-18 02:27 | 28.78547 | -13.78157 | 35996 ft | 446 kts | 214° |
| 2026-04-18 02:28 | 28.73273 | -13.81894 | 36002 ft | 446 kts | 214° |
| 2026-04-18 02:28 | 28.68001 | -13.85626 | 36010 ft | 446 kts | 214° |
| 2026-04-18 02:29 | 28.62734 | -13.89348 | 36016 ft | 445 kts | 214° |
| 2026-04-18 02:29 | 28.57480 | -13.93059 | 36015 ft | 444 kts | 214° |
| 2026-04-18 02:30 | 28.52222 | -13.96767 | 36020 ft | 444 kts | 214° |
| 2026-04-18 02:30 | 28.46967 | -14.00467 | 36009 ft | 444 kts | 214° |
| 2026-04-18 02:31 | 28.41713 | -14.04165 | 36010 ft | 444 kts | 214° |
| 2026-04-18 02:31 | 28.36458 | -14.07858 | 35976 ft | 444 kts | 214° |
| 2026-04-18 02:32 | 28.31199 | -14.11550 | 35978 ft | 444 kts | 214° |
| 2026-04-18 02:32 | 28.25942 | -14.15235 | 35983 ft | 444 kts | 214° |
| 2026-04-18 02:33 | 28.20718 | -14.18893 | 35967 ft | 444 kts | 214° |
| 2026-04-18 02:33 | 28.15455 | -14.22574 | 35977 ft | 444 kts | 214° |
| 2026-04-18 02:34 | 28.10191 | -14.26252 | 35971 ft | 444 kts | 214° |
| 2026-04-18 02:34 | 28.04924 | -14.29927 | 35972 ft | 444 kts | 214° |
| 2026-04-18 02:35 | 27.99660 | -14.33596 | 35975 ft | 444 kts | 214° |
| 2026-04-18 02:35 | 27.94391 | -14.37265 | 35972 ft | 444 kts | 214° |
| 2026-04-18 02:36 | 27.89126 | -14.40925 | 35959 ft | 444 kts | 214° |
| 2026-04-18 02:36 | 27.83849 | -14.44590 | 35964 ft | 445 kts | 214° |
| 2026-04-18 02:37 | 27.78573 | -14.48251 | 35968 ft | 445 kts | 214° |
| 2026-04-18 02:37 | 27.73299 | -14.51905 | 35962 ft | 445 kts | 214° |
| 2026-04-18 02:38 | 27.68017 | -14.55561 | 35960 ft | 445 kts | 214° |
| 2026-04-18 02:38 | 27.62736 | -14.59211 | 35963 ft | 445 kts | 214° |
| 2026-04-18 02:39 | 27.57458 | -14.62856 | 35947 ft | 445 kts | 214° |
| 2026-04-18 02:39 | 27.52177 | -14.66498 | 35950 ft | 445 kts | 214° |
| 2026-04-18 02:40 | 27.46897 | -14.70137 | 35954 ft | 445 kts | 214° |
| 2026-04-18 02:40 | 27.41612 | -14.73775 | 35953 ft | 445 kts | 214° |
| 2026-04-18 02:41 | 27.36365 | -14.77382 | 35947 ft | 445 kts | 214° |
| 2026-04-18 02:41 | 27.31080 | -14.81012 | 35948 ft | 445 kts | 214° |
| 2026-04-18 02:42 | 27.25798 | -14.84634 | 35927 ft | 445 kts | 214° |
| 2026-04-18 02:42 | 27.20508 | -14.88257 | 35941 ft | 445 kts | 214° |
| 2026-04-18 02:43 | 27.15221 | -14.91876 | 35944 ft | 445 kts | 214° |
| 2026-04-18 02:43 | 27.09928 | -14.95494 | 35942 ft | 445 kts | 214° |
| 2026-04-18 02:44 | 27.04644 | -14.99103 | 35941 ft | 444 kts | 214° |
| 2026-04-18 02:44 | 26.99363 | -15.02705 | 35939 ft | 444 kts | 214° |
| 2026-04-18 02:45 | 26.94079 | -15.06305 | 35935 ft | 444 kts | 214° |
| 2026-04-18 02:45 | 26.88791 | -15.09904 | 35930 ft | 444 kts | 214° |
| 2026-04-18 02:46 | 26.83502 | -15.13500 | 35928 ft | 444 kts | 214° |
| 2026-04-18 02:46 | 26.78214 | -15.17090 | 35928 ft | 445 kts | 214° |
| 2026-04-18 02:47 | 26.72920 | -15.20681 | 35925 ft | 445 kts | 214° |
| 2026-04-18 02:47 | 26.67628 | -15.24267 | 35922 ft | 445 kts | 214° |
| 2026-04-18 02:48 | 26.62370 | -15.27824 | 35907 ft | 445 kts | 214° |
| 2026-04-18 02:48 | 26.57077 | -15.31401 | 35918 ft | 444 kts | 214° |
| 2026-04-18 02:49 | 26.51782 | -15.34978 | 35920 ft | 444 kts | 214° |
| 2026-04-18 02:49 | 26.46490 | -15.38548 | 35912 ft | 444 kts | 214° |
| 2026-04-18 02:50 | 26.41159 | -15.42141 | 35912 ft | 444 kts | 214° |
| 2026-04-18 02:50 | 26.35901 | -15.45680 | 35907 ft | 444 kts | 214° |
| 2026-04-18 02:51 | 26.30603 | -15.49241 | 35897 ft | 444 kts | 214° |
| 2026-04-18 02:51 | 26.25305 | -15.52799 | 35901 ft | 444 kts | 214° |
| 2026-04-18 02:52 | 26.20010 | -15.56352 | 35901 ft | 444 kts | 214° |
| 2026-04-18 02:52 | 26.14715 | -15.59901 | 35901 ft | 444 kts | 214° |
| 2026-04-18 02:53 | 26.09417 | -15.63449 | 35899 ft | 444 kts | 214° |
| 2026-04-18 02:53 | 26.04123 | -15.66988 | 35902 ft | 443 kts | 214° |
| 2026-04-18 02:54 | 25.98834 | -15.70521 | 35876 ft | 443 kts | 214° |
| 2026-04-18 02:54 | 25.93556 | -15.74043 | 35890 ft | 442 kts | 214° |
| 2026-04-18 02:55 | 25.88274 | -15.77565 | 35894 ft | 442 kts | 214° |
| 2026-04-18 02:55 | 25.82992 | -15.81083 | 35890 ft | 442 kts | 214° |
| 2026-04-18 02:56 | 25.77712 | -15.84596 | 35890 ft | 442 kts | 214° |
| 2026-04-18 02:56 | 25.69786 | -15.89862 | 35885 ft | 442 kts | 214° |
| 2026-04-18 02:57 | 25.64508 | -15.93362 | 35876 ft | 441 kts | 214° |
| 2026-04-18 02:57 | 25.59237 | -15.96856 | 35878 ft | 441 kts | 214° |
| 2026-04-18 02:58 | 25.53967 | -16.00346 | 35886 ft | 441 kts | 214° |
| 2026-04-18 02:58 | 25.48696 | -16.03833 | 35881 ft | 441 kts | 214° |
| 2026-04-18 02:59 | 25.43461 | -16.07292 | 35871 ft | 441 kts | 214° |
| 2026-04-18 02:59 | 25.38154 | -16.10795 | 35872 ft | 441 kts | 214° |
| 2026-04-18 03:00 | 25.32883 | -16.14269 | 35861 ft | 441 kts | 215° |
| 2026-04-18 03:00 | 25.27654 | -16.17714 | 35871 ft | 440 kts | 215° |
| 2026-04-18 03:01 | 25.22387 | -16.21181 | 35865 ft | 441 kts | 215° |
| 2026-04-18 03:01 | 25.17114 | -16.24648 | 35865 ft | 441 kts | 215° |
| 2026-04-18 03:02 | 25.11806 | -16.28134 | 35866 ft | 441 kts | 215° |
| 2026-04-18 03:02 | 25.06570 | -16.31569 | 35862 ft | 441 kts | 214° |
| 2026-04-18 03:03 | 25.01296 | -16.35023 | 35859 ft | 440 kts | 215° |
| 2026-04-18 03:03 | 24.96032 | -16.38467 | 35854 ft | 440 kts | 215° |
| 2026-04-18 03:04 | 24.90772 | -16.41908 | 35859 ft | 439 kts | 215° |
| 2026-04-18 03:04 | 24.85512 | -16.45346 | 35856 ft | 439 kts | 215° |
| 2026-04-18 03:05 | 24.80250 | -16.48781 | 35854 ft | 439 kts | 215° |
| 2026-04-18 03:05 | 24.74986 | -16.52212 | 35854 ft | 439 kts | 215° |
| 2026-04-18 03:06 | 24.69724 | -16.55639 | 35829 ft | 439 kts | 215° |
| 2026-04-18 03:06 | 24.64466 | -16.59058 | 35862 ft | 439 kts | 215° |
| 2026-04-18 03:07 | 24.60098 | -16.61899 | 35847 ft | 439 kts | 215° |
| 2026-04-18 03:07 | 24.54840 | -16.65315 | 35863 ft | 439 kts | 215° |
| 2026-04-18 03:08 | 24.48731 | -16.69279 | 35847 ft | 439 kts | 215° |
| 2026-04-18 03:08 | 24.44327 | -16.72131 | 35862 ft | 438 kts | 216° |
| 2026-04-18 03:09 | 24.39084 | -16.75527 | 35855 ft | 438 kts | 216° |
| 2026-04-18 03:09 | 24.33834 | -16.78922 | 35855 ft | 438 kts | 216° |
| 2026-04-18 03:10 | 24.28612 | -16.82299 | 35854 ft | 438 kts | 216° |
| 2026-04-18 03:10 | 24.23318 | -16.85718 | 35854 ft | 438 kts | 216° |
| 2026-04-18 03:11 | 24.18096 | -16.89087 | 35857 ft | 438 kts | 216° |
| 2026-04-18 03:11 | 24.12834 | -16.92478 | 35844 ft | 438 kts | 216° |
| 2026-04-18 03:12 | 24.07574 | -16.95865 | 35856 ft | 438 kts | 216° |
| 2026-04-18 03:12 | 24.02313 | -16.99247 | 35848 ft | 439 kts | 216° |
| 2026-04-18 03:13 | 23.97054 | -17.02626 | 35858 ft | 439 kts | 216° |
| 2026-04-18 03:13 | 23.91787 | -17.06007 | 35869 ft | 438 kts | 216° |
| 2026-04-18 03:14 | 23.86529 | -17.09379 | 35867 ft | 438 kts | 216° |
| 2026-04-18 03:14 | 23.81275 | -17.12746 | 35865 ft | 438 kts | 216° |
| 2026-04-18 03:15 | 23.76018 | -17.16113 | 35865 ft | 438 kts | 216° |
| 2026-04-18 03:15 | 23.70760 | -17.19476 | 35868 ft | 438 kts | 216° |
| 2026-04-18 03:16 | 23.65501 | -17.22836 | 35868 ft | 438 kts | 216° |
| 2026-04-18 03:16 | 23.60241 | -17.26194 | 35868 ft | 438 kts | 216° |
| 2026-04-18 03:17 | 23.54979 | -17.29549 | 35867 ft | 438 kts | 216° |
| 2026-04-18 03:17 | 23.49714 | -17.32904 | 35871 ft | 438 kts | 216° |
| 2026-04-18 03:18 | 23.44454 | -17.36251 | 35871 ft | 438 kts | 216° |
| 2026-04-18 03:18 | 23.39189 | -17.39599 | 35847 ft | 438 kts | 216° |
| 2026-04-18 03:19 | 23.33932 | -17.42936 | 35868 ft | 437 kts | 216° |
| 2026-04-18 03:19 | 23.28679 | -17.46272 | 35870 ft | 437 kts | 216° |
| 2026-04-18 03:20 | 23.23428 | -17.49604 | 35874 ft | 437 kts | 216° |
| 2026-04-18 03:20 | 23.18208 | -17.52912 | 35873 ft | 437 kts | 216° |
| 2026-04-18 03:21 | 23.12950 | -17.56240 | 35874 ft | 437 kts | 216° |
| 2026-04-18 03:21 | 23.07694 | -17.59565 | 35873 ft | 437 kts | 216° |
| 2026-04-18 03:22 | 23.02436 | -17.62884 | 35863 ft | 437 kts | 216° |
| 2026-04-18 03:22 | 22.97176 | -17.66205 | 35874 ft | 437 kts | 216° |
| 2026-04-18 03:23 | 22.91919 | -17.69522 | 35876 ft | 437 kts | 216° |
| 2026-04-18 03:23 | 22.86660 | -17.72836 | 35876 ft | 437 kts | 216° |
| 2026-04-18 03:24 | 22.81397 | -17.76148 | 35881 ft | 437 kts | 216° |
| 2026-04-18 03:24 | 22.76141 | -17.79454 | 35877 ft | 437 kts | 216° |
| 2026-04-18 03:25 | 22.70884 | -17.82756 | 35859 ft | 436 kts | 216° |
| 2026-04-18 03:25 | 22.65630 | -17.86055 | 35873 ft | 437 kts | 217° |
| 2026-04-18 03:26 | 22.60370 | -17.89356 | 35879 ft | 437 kts | 217° |
| 2026-04-18 03:26 | 22.55115 | -17.92651 | 35879 ft | 437 kts | 217° |
| 2026-04-18 03:27 | 22.49855 | -17.95945 | 35879 ft | 437 kts | 216° |
| 2026-04-18 03:27 | 22.44596 | -17.99236 | 35879 ft | 437 kts | 216° |
| 2026-04-18 03:28 | 22.39337 | -18.02523 | 35853 ft | 437 kts | 217° |
| 2026-04-18 03:28 | 22.34075 | -18.05804 | 35871 ft | 436 kts | 217° |
| 2026-04-18 03:29 | 22.28820 | -18.09085 | 35877 ft | 436 kts | 217° |
| 2026-04-18 03:29 | 22.23563 | -18.12361 | 35876 ft | 436 kts | 217° |
| 2026-04-18 03:30 | 22.18309 | -18.15636 | 35880 ft | 436 kts | 217° |
| 2026-04-18 03:30 | 22.13061 | -18.18904 | 35879 ft | 436 kts | 217° |
| 2026-04-18 03:31 | 22.07809 | -18.22170 | 35879 ft | 436 kts | 217° |
| 2026-04-18 03:31 | 22.02548 | -18.25432 | 35868 ft | 435 kts | 218° |
| 2026-04-18 03:32 | 21.97310 | -18.28685 | 35876 ft | 434 kts | 218° |
| 2026-04-18 03:32 | 21.92074 | -18.31935 | 35882 ft | 434 kts | 218° |
| 2026-04-18 03:33 | 21.86832 | -18.35185 | 35880 ft | 434 kts | 218° |
| 2026-04-18 03:33 | 21.81591 | -18.38430 | 35897 ft | 434 kts | 218° |
| 2026-04-18 03:34 | 21.76351 | -18.41672 | 35880 ft | 434 kts | 218° |
| 2026-04-18 03:34 | 21.71109 | -18.44908 | 35875 ft | 434 kts | 218° |
| 2026-04-18 03:35 | 21.65883 | -18.48128 | 35878 ft | 432 kts | 219° |
| 2026-04-18 03:35 | 21.60675 | -18.51348 | 35878 ft | 432 kts | 219° |
| 2026-04-18 03:36 | 21.55464 | -18.54564 | 35882 ft | 432 kts | 219° |
| 2026-04-18 03:36 | 21.50254 | -18.57775 | 35884 ft | 432 kts | 219° |
| 2026-04-18 03:37 | 21.45040 | -18.60984 | 35881 ft | 432 kts | 219° |
| 2026-04-18 03:37 | 21.39861 | -18.64169 | 35878 ft | 432 kts | 219° |
| 2026-04-18 03:38 | 21.34649 | -18.67364 | 35872 ft | 430 kts | 219° |
| 2026-04-18 03:38 | 21.29453 | -18.70557 | 35878 ft | 430 kts | 219° |
| 2026-04-18 03:39 | 21.24263 | -18.73742 | 35882 ft | 430 kts | 219° |
| 2026-04-18 03:39 | 21.19070 | -18.76925 | 35881 ft | 430 kts | 219° |
| 2026-04-18 03:40 | 21.13876 | -18.80105 | 35885 ft | 430 kts | 219° |
| 2026-04-18 03:40 | 21.08683 | -18.83283 | 35881 ft | 430 kts | 219° |
| 2026-04-18 03:41 | 21.03481 | -18.86461 | 35858 ft | 430 kts | 220° |
| 2026-04-18 03:41 | 20.98301 | -18.89621 | 35879 ft | 428 kts | 220° |
| 2026-04-18 03:42 | 20.93127 | -18.92782 | 35884 ft | 428 kts | 220° |
| 2026-04-18 03:42 | 20.87952 | -18.95940 | 35884 ft | 428 kts | 220° |
| 2026-04-18 03:43 | 20.82777 | -18.99093 | 35884 ft | 428 kts | 220° |
| 2026-04-18 03:43 | 20.77604 | -19.02242 | 35884 ft | 428 kts | 220° |
| 2026-04-18 03:44 | 20.72427 | -19.05391 | 35884 ft | 428 kts | 220° |
| 2026-04-18 03:44 | 20.67252 | -19.08532 | 35878 ft | 427 kts | 220° |
| 2026-04-18 03:45 | 20.62091 | -19.11667 | 35882 ft | 426 kts | 220° |
| 2026-04-18 03:45 | 20.56937 | -19.14795 | 35882 ft | 425 kts | 220° |
| 2026-04-18 03:46 | 20.51788 | -19.17920 | 35884 ft | 425 kts | 220° |
| 2026-04-18 03:46 | 20.46640 | -19.21041 | 35884 ft | 425 kts | 220° |
| 2026-04-18 03:47 | 20.41492 | -19.24160 | 35885 ft | 425 kts | 220° |
| 2026-04-18 03:47 | 20.36379 | -19.27254 | 35884 ft | 425 kts | 220° |
| 2026-04-18 03:48 | 20.31230 | -19.30367 | 35885 ft | 426 kts | 220° |
| 2026-04-18 03:48 | 20.26076 | -19.33481 | 35884 ft | 425 kts | 220° |
| 2026-04-18 03:49 | 20.20924 | -19.36590 | 35884 ft | 425 kts | 220° |
| 2026-04-18 03:49 | 20.15772 | -19.39697 | 35884 ft | 425 kts | 220° |
| 2026-04-18 03:50 | 20.10620 | -19.42802 | 35885 ft | 425 kts | 220° |
| 2026-04-18 03:50 | 20.05466 | -19.45906 | 35884 ft | 425 kts | 220° |
| 2026-04-18 03:51 | 20.00309 | -19.49004 | 35856 ft | 426 kts | 221° |
| 2026-04-18 03:51 | 19.95148 | -19.52109 | 35870 ft | 426 kts | 221° |
| 2026-04-18 03:52 | 19.89984 | -19.55214 | 35887 ft | 426 kts | 221° |
| 2026-04-18 03:52 | 19.84819 | -19.58316 | 35884 ft | 426 kts | 221° |
| 2026-04-18 03:53 | 19.79656 | -19.61414 | 35873 ft | 426 kts | 221° |
| 2026-04-18 03:53 | 19.74482 | -19.64515 | 35887 ft | 427 kts | 221° |
| 2026-04-18 03:54 | 19.70186 | -19.67088 | 35874 ft | 426 kts | 221° |
| 2026-04-18 03:54 | 19.64168 | -19.70693 | 35873 ft | 428 kts | 221° |
| 2026-04-18 03:55 | 19.58974 | -19.73799 | 35881 ft | 429 kts | 221° |
| 2026-04-18 03:55 | 19.53757 | -19.76879 | 35882 ft | 429 kts | 221° |
| 2026-04-18 03:56 | 19.49383 | -19.79455 | 35882 ft | 429 kts | 221° |
| 2026-04-18 03:56 | 19.44162 | -19.82526 | 35879 ft | 429 kts | 221° |
| 2026-04-18 03:57 | 19.36332 | -19.87133 | 35882 ft | 429 kts | 221° |
| 2026-04-18 03:58 | 19.31151 | -19.90181 | 35872 ft | 430 kts | 221° |
| 2026-04-18 03:58 | 19.25918 | -19.93256 | 35880 ft | 430 kts | 221° |
| 2026-04-18 03:59 | 19.20686 | -19.96326 | 35883 ft | 430 kts | 221° |
| 2026-04-18 03:59 | 19.15458 | -19.99393 | 35884 ft | 430 kts | 221° |
| 2026-04-18 04:00 | 19.10225 | -20.02461 | 35885 ft | 430 kts | 221° |
| 2026-04-18 04:00 | 19.04992 | -20.05526 | 35883 ft | 430 kts | 221° |
| 2026-04-18 04:01 | 18.99761 | -20.08587 | 35838 ft | 430 kts | 220° |
| 2026-04-18 04:01 | 18.94520 | -20.11658 | 35878 ft | 432 kts | 220° |
| 2026-04-18 04:02 | 18.89259 | -20.14732 | 35882 ft | 432 kts | 220° |
| 2026-04-18 04:02 | 18.84003 | -20.17801 | 35881 ft | 432 kts | 220° |
| 2026-04-18 04:03 | 18.78742 | -20.20871 | 35882 ft | 432 kts | 220° |
| 2026-04-18 04:03 | 18.73485 | -20.23937 | 35882 ft | 432 kts | 220° |
| 2026-04-18 04:04 | 18.68227 | -20.27001 | 35881 ft | 432 kts | 220° |
| 2026-04-18 04:04 | 18.62962 | -20.30073 | 35862 ft | 434 kts | 220° |
| 2026-04-18 04:05 | 18.57665 | -20.33157 | 35881 ft | 435 kts | 220° |
| 2026-04-18 04:05 | 18.52360 | -20.36239 | 35889 ft | 435 kts | 220° |
| 2026-04-18 04:06 | 18.47050 | -20.39324 | 35886 ft | 435 kts | 220° |
| 2026-04-18 04:06 | 18.41745 | -20.42405 | 35881 ft | 435 kts | 220° |
| 2026-04-18 04:07 | 18.36440 | -20.45482 | 35878 ft | 435 kts | 220° |
| 2026-04-18 04:07 | 18.31132 | -20.48559 | 35848 ft | 436 kts | 220° |
| 2026-04-18 04:08 | 18.25844 | -20.51630 | 35873 ft | 438 kts | 219° |
| 2026-04-18 04:08 | 18.20465 | -20.54744 | 35880 ft | 438 kts | 219° |
| 2026-04-18 04:09 | 18.15156 | -20.57814 | 35881 ft | 438 kts | 219° |
| 2026-04-18 04:09 | 18.09809 | -20.60905 | 35881 ft | 438 kts | 219° |
| 2026-04-18 04:10 | 18.04463 | -20.63994 | 35883 ft | 438 kts | 219° |
| 2026-04-18 04:10 | 17.99124 | -20.67077 | 35884 ft | 438 kts | 219° |
| 2026-04-18 04:11 | 17.93773 | -20.70168 | 35874 ft | 439 kts | 219° |
| 2026-04-18 04:11 | 17.88410 | -20.73261 | 35884 ft | 440 kts | 219° |
| 2026-04-18 04:12 | 17.83046 | -20.76352 | 35881 ft | 440 kts | 219° |
| 2026-04-18 04:12 | 17.77673 | -20.79445 | 35880 ft | 440 kts | 219° |
| 2026-04-18 04:13 | 17.72306 | -20.82533 | 35876 ft | 440 kts | 219° |
| 2026-04-18 04:13 | 17.66933 | -20.85623 | 35881 ft | 440 kts | 219° |
| 2026-04-18 04:14 | 17.61556 | -20.88713 | 35861 ft | 441 kts | 219° |
| 2026-04-18 04:14 | 17.56163 | -20.91812 | 35879 ft | 442 kts | 219° |
| 2026-04-18 04:15 | 17.50763 | -20.94912 | 35882 ft | 443 kts | 219° |
| 2026-04-18 04:15 | 17.45359 | -20.98009 | 35884 ft | 443 kts | 219° |
| 2026-04-18 04:16 | 17.39952 | -21.01108 | 35888 ft | 443 kts | 219° |
| 2026-04-18 04:16 | 17.34547 | -21.04204 | 35887 ft | 443 kts | 219° |
| 2026-04-18 04:17 | 17.29144 | -21.07296 | 35884 ft | 443 kts | 219° |
| 2026-04-18 04:17 | 17.23725 | -21.10398 | 35886 ft | 445 kts | 219° |
| 2026-04-18 04:18 | 17.18282 | -21.13510 | 35887 ft | 446 kts | 219° |
| 2026-04-18 04:18 | 17.12832 | -21.16623 | 35884 ft | 446 kts | 219° |
| 2026-04-18 04:19 | 17.07384 | -21.19732 | 35881 ft | 446 kts | 219° |
| 2026-04-18 04:19 | 17.01931 | -21.22842 | 35890 ft | 446 kts | 219° |
| 2026-04-18 04:20 | 16.96479 | -21.25949 | 35888 ft | 446 kts | 219° |
| 2026-04-18 04:20 | 16.91028 | -21.29054 | 35888 ft | 446 kts | 219° |
| 2026-04-18 04:21 | 16.85610 | -21.32138 | 35884 ft | 446 kts | 219° |
| 2026-04-18 04:21 | 16.80154 | -21.35241 | 35884 ft | 446 kts | 219° |
| 2026-04-18 04:22 | 16.74664 | -21.38362 | 35885 ft | 446 kts | 219° |
| 2026-04-18 04:22 | 16.69209 | -21.41462 | 35884 ft | 446 kts | 219° |
| 2026-04-18 04:23 | 16.63786 | -21.44541 | 35881 ft | 446 kts | 218° |
| 2026-04-18 04:23 | 16.58327 | -21.47638 | 35876 ft | 446 kts | 218° |
| 2026-04-18 04:24 | 16.52854 | -21.50749 | 35878 ft | 449 kts | 218° |
| 2026-04-18 04:24 | 16.47357 | -21.53862 | 35885 ft | 450 kts | 218° |
| 2026-04-18 04:25 | 16.41856 | -21.56974 | 35885 ft | 450 kts | 218° |
| 2026-04-18 04:25 | 16.36358 | -21.60085 | 35887 ft | 450 kts | 218° |
| 2026-04-18 04:26 | 16.30862 | -21.63193 | 35888 ft | 450 kts | 218° |
| 2026-04-18 04:26 | 16.25361 | -21.66302 | 35888 ft | 450 kts | 218° |
| 2026-04-18 04:27 | 16.19853 | -21.69421 | 35877 ft | 452 kts | 217° |
| 2026-04-18 04:27 | 16.14317 | -21.72545 | 35886 ft | 453 kts | 217° |
| 2026-04-18 04:28 | 16.08775 | -21.75668 | 35882 ft | 453 kts | 217° |
| 2026-04-18 04:28 | 16.03235 | -21.78789 | 35885 ft | 453 kts | 217° |
| 2026-04-18 04:29 | 15.97688 | -21.81913 | 35867 ft | 453 kts | 217° |
| 2026-04-18 04:29 | 15.92143 | -21.85035 | 35880 ft | 453 kts | 217° |
| 2026-04-18 04:30 | 15.86595 | -21.88158 | 35881 ft | 454 kts | 217° |
| 2026-04-18 04:30 | 15.81023 | -21.91294 | 35883 ft | 456 kts | 217° |
| 2026-04-18 04:31 | 15.75446 | -21.94427 | 35886 ft | 456 kts | 217° |
| 2026-04-18 04:31 | 15.69863 | -21.97561 | 35884 ft | 456 kts | 217° |
| 2026-04-18 04:32 | 15.64286 | -22.00690 | 35885 ft | 456 kts | 217° |
| 2026-04-18 04:32 | 15.58705 | -22.03821 | 35884 ft | 456 kts | 217° |
| 2026-04-18 04:33 | 15.53125 | -22.06948 | 35867 ft | 456 kts | 217° |
| 2026-04-18 04:33 | 15.47530 | -22.10085 | 35882 ft | 458 kts | 217° |
| 2026-04-18 04:34 | 15.41923 | -22.13224 | 35882 ft | 458 kts | 217° |
| 2026-04-18 04:34 | 15.36316 | -22.16360 | 35882 ft | 458 kts | 217° |
| 2026-04-18 04:35 | 15.30745 | -22.19475 | 35883 ft | 458 kts | 217° |
| 2026-04-18 04:35 | 15.25134 | -22.22610 | 35884 ft | 458 kts | 217° |
| 2026-04-18 04:36 | 15.19529 | -22.25741 | 35886 ft | 458 kts | 217° |
| 2026-04-18 04:36 | 15.13913 | -22.28879 | 35872 ft | 460 kts | 217° |
| 2026-04-18 04:37 | 15.08273 | -22.32025 | 35881 ft | 460 kts | 217° |
| 2026-04-18 04:37 | 15.02633 | -22.35168 | 35883 ft | 460 kts | 217° |
| 2026-04-18 04:38 | 14.96994 | -22.38310 | 35884 ft | 460 kts | 217° |
| 2026-04-18 04:38 | 14.91353 | -22.41450 | 35885 ft | 460 kts | 217° |
| 2026-04-18 04:39 | 14.85714 | -22.44587 | 35883 ft | 460 kts | 217° |
| 2026-04-18 04:39 | 14.80069 | -22.47730 | 35878 ft | 461 kts | 216° |
| 2026-04-18 04:40 | 14.74409 | -22.50876 | 35880 ft | 462 kts | 216° |
| 2026-04-18 04:40 | 14.68747 | -22.54019 | 35878 ft | 462 kts | 216° |
| 2026-04-18 04:41 | 14.63082 | -22.57164 | 35885 ft | 462 kts | 216° |
| 2026-04-18 04:41 | 14.58375 | -22.59775 | 35881 ft | 462 kts | 216° |
| 2026-04-18 04:42 | 14.52712 | -22.62915 | 35881 ft | 462 kts | 216° |
| 2026-04-18 04:42 | 14.47047 | -22.66056 | 35873 ft | 462 kts | 216° |
| 2026-04-18 04:43 | 14.41368 | -22.69203 | 35880 ft | 464 kts | 216° |
| 2026-04-18 04:43 | 14.35679 | -22.72351 | 35885 ft | 464 kts | 216° |
| 2026-04-18 04:44 | 14.29991 | -22.75498 | 35887 ft | 464 kts | 216° |
| 2026-04-18 04:44 | 14.24306 | -22.78641 | 35878 ft | 463 kts | 216° |
| 2026-04-18 04:45 | 14.18629 | -22.81779 | 35881 ft | 463 kts | 216° |
| 2026-04-18 04:45 | 14.12953 | -22.84914 | 35867 ft | 463 kts | 216° |
| 2026-04-18 04:46 | 14.07259 | -22.88060 | 35882 ft | 465 kts | 216° |
| 2026-04-18 04:46 | 14.01596 | -22.91183 | 35883 ft | 465 kts | 216° |
| 2026-04-18 04:47 | 13.95895 | -22.94325 | 35885 ft | 465 kts | 216° |
| 2026-04-18 04:47 | 13.90196 | -22.97465 | 35881 ft | 465 kts | 216° |
| 2026-04-18 04:48 | 13.84493 | -23.00606 | 35884 ft | 465 kts | 216° |
| 2026-04-18 04:48 | 13.78788 | -23.03746 | 35885 ft | 465 kts | 216° |
| 2026-04-18 04:49 | 13.73076 | -23.06892 | 35880 ft | 466 kts | 215° |
| 2026-04-18 04:49 | 13.67354 | -23.10037 | 35884 ft | 466 kts | 215° |
| 2026-04-18 04:50 | 13.61637 | -23.13178 | 35883 ft | 465 kts | 215° |
| 2026-04-18 04:50 | 13.55926 | -23.16313 | 35887 ft | 465 kts | 215° |
| 2026-04-18 04:51 | 13.50219 | -23.19445 | 35881 ft | 465 kts | 215° |
| 2026-04-18 04:51 | 13.44506 | -23.22580 | 35881 ft | 465 kts | 215° |
| 2026-04-18 04:52 | 13.38792 | -23.25712 | 35885 ft | 465 kts | 215° |
| 2026-04-18 04:52 | 13.33080 | -23.28843 | 35885 ft | 465 kts | 215° |
| 2026-04-18 04:53 | 13.27373 | -23.31969 | 35879 ft | 465 kts | 215° |
| 2026-04-18 04:53 | 13.21663 | -23.35095 | 35881 ft | 465 kts | 215° |
| 2026-04-18 04:54 | 13.15949 | -23.38221 | 35886 ft | 465 kts | 215° |
| 2026-04-18 04:54 | 13.10234 | -23.41346 | 35886 ft | 465 kts | 215° |
| 2026-04-18 04:55 | 13.04555 | -23.44454 | 35876 ft | 467 kts | 215° |
| 2026-04-18 04:55 | 12.98818 | -23.47588 | 35882 ft | 467 kts | 214° |
| 2026-04-18 04:56 | 12.90208 | -23.52286 | 35881 ft | 467 kts | 214° |
| 2026-04-18 04:56 | 12.84465 | -23.55418 | 35881 ft | 467 kts | 214° |
| 2026-04-18 04:57 | 12.78727 | -23.58546 | 35880 ft | 467 kts | 214° |
| 2026-04-18 04:57 | 12.72987 | -23.61675 | 35873 ft | 467 kts | 214° |
| 2026-04-18 04:58 | 12.67233 | -23.64812 | 35881 ft | 469 kts | 214° |
| 2026-04-18 04:58 | 12.61461 | -23.67954 | 35881 ft | 469 kts | 214° |
| 2026-04-18 04:59 | 12.55693 | -23.71091 | 35881 ft | 469 kts | 214° |
| 2026-04-18 04:59 | 12.49925 | -23.74228 | 35879 ft | 469 kts | 214° |
| 2026-04-18 05:00 | 12.44156 | -23.77364 | 35881 ft | 469 kts | 214° |
| 2026-04-18 05:00 | 12.38384 | -23.80499 | 35871 ft | 469 kts | 214° |
| 2026-04-18 05:01 | 12.32601 | -23.83641 | 35877 ft | 471 kts | 214° |
| 2026-04-18 05:01 | 12.26808 | -23.86785 | 35878 ft | 471 kts | 214° |
| 2026-04-18 05:02 | 12.21013 | -23.89928 | 35879 ft | 471 kts | 214° |
| 2026-04-18 05:02 | 12.15218 | -23.93070 | 35879 ft | 471 kts | 214° |
| 2026-04-18 05:03 | 12.09425 | -23.96209 | 35880 ft | 471 kts | 214° |
| 2026-04-18 05:03 | 12.03628 | -23.99350 | 35879 ft | 471 kts | 214° |
| 2026-04-18 05:04 | 11.97825 | -24.02494 | 35876 ft | 473 kts | 214° |
| 2026-04-18 05:04 | 11.92002 | -24.05644 | 35878 ft | 473 kts | 214° |
| 2026-04-18 05:05 | 11.86225 | -24.08769 | 35877 ft | 473 kts | 214° |
| 2026-04-18 05:05 | 11.80368 | -24.11935 | 35878 ft | 473 kts | 214° |
| 2026-04-18 05:06 | 11.74592 | -24.15055 | 35879 ft | 473 kts | 214° |
| 2026-04-18 05:06 | 11.68776 | -24.18196 | 35878 ft | 473 kts | 214° |
| 2026-04-18 05:07 | 11.62945 | -24.21346 | 35874 ft | 474 kts | 214° |
| 2026-04-18 05:07 | 11.57107 | -24.24496 | 35877 ft | 475 kts | 214° |
| 2026-04-18 05:08 | 11.51267 | -24.27645 | 35874 ft | 475 kts | 214° |
| 2026-04-18 05:08 | 11.45425 | -24.30794 | 35874 ft | 475 kts | 214° |
| 2026-04-18 05:09 | 11.39580 | -24.33943 | 35876 ft | 475 kts | 214° |
| 2026-04-18 05:09 | 11.33737 | -24.37090 | 35877 ft | 475 kts | 214° |
| 2026-04-18 05:10 | 11.27887 | -24.40240 | 35877 ft | 476 kts | 213° |
| 2026-04-18 05:10 | 11.22024 | -24.43395 | 35879 ft | 476 kts | 213° |
| 2026-04-18 05:11 | 11.16161 | -24.46548 | 35876 ft | 476 kts | 213° |
| 2026-04-18 05:11 | 11.10298 | -24.49699 | 35874 ft | 476 kts | 213° |
| 2026-04-18 05:12 | 11.04431 | -24.52851 | 35875 ft | 476 kts | 213° |
| 2026-04-18 05:12 | 10.98567 | -24.56001 | 35875 ft | 476 kts | 213° |
| 2026-04-18 05:13 | 10.92697 | -24.59154 | 35877 ft | 478 kts | 213° |
| 2026-04-18 05:13 | 10.86814 | -24.62310 | 35868 ft | 478 kts | 213° |
| 2026-04-18 05:14 | 10.80929 | -24.65466 | 35880 ft | 478 kts | 213° |
| 2026-04-18 05:14 | 10.75086 | -24.68598 | 35876 ft | 478 kts | 213° |
| 2026-04-18 05:15 | 10.69203 | -24.71750 | 35864 ft | 478 kts | 213° |
| 2026-04-18 05:15 | 10.63318 | -24.74903 | 35877 ft | 478 kts | 213° |
| 2026-04-18 05:16 | 10.57428 | -24.78058 | 35871 ft | 479 kts | 213° |
| 2026-04-18 05:16 | 10.51531 | -24.81214 | 35873 ft | 479 kts | 213° |
| 2026-04-18 05:17 | 10.45633 | -24.84368 | 35867 ft | 479 kts | 213° |
| 2026-04-18 05:17 | 10.39731 | -24.87523 | 35872 ft | 479 kts | 213° |
| 2026-04-18 05:18 | 10.33835 | -24.90675 | 35869 ft | 479 kts | 213° |
| 2026-04-18 05:18 | 10.27935 | -24.93827 | 35867 ft | 479 kts | 213° |
| 2026-04-18 05:19 | 10.22029 | -24.96984 | 35861 ft | 480 kts | 213° |
| 2026-04-18 05:19 | 10.16110 | -25.00142 | 35873 ft | 480 kts | 213° |
| 2026-04-18 05:20 | 10.10193 | -25.03299 | 35865 ft | 480 kts | 213° |
| 2026-04-18 05:20 | 10.04280 | -25.06452 | 35874 ft | 480 kts | 213° |
| 2026-04-18 05:21 | 9.98365 | -25.09605 | 35869 ft | 480 kts | 213° |
| 2026-04-18 05:21 | 9.92449 | -25.12758 | 35870 ft | 480 kts | 213° |
| 2026-04-18 05:22 | 9.86537 | -25.15908 | 35866 ft | 480 kts | 213° |
| 2026-04-18 05:22 | 9.80658 | -25.19038 | 35870 ft | 480 kts | 213° |
| 2026-04-18 05:23 | 9.74747 | -25.22184 | 35872 ft | 480 kts | 213° |
| 2026-04-18 05:23 | 9.68830 | -25.25332 | 35868 ft | 480 kts | 213° |
| 2026-04-18 05:24 | 9.62910 | -25.28480 | 35858 ft | 480 kts | 213° |
| 2026-04-18 05:24 | 9.56992 | -25.31627 | 35850 ft | 480 kts | 213° |
| 2026-04-18 05:25 | 9.51067 | -25.34778 | 35862 ft | 481 kts | 213° |
| 2026-04-18 05:25 | 9.45134 | -25.37928 | 35869 ft | 481 kts | 213° |
| 2026-04-18 05:26 | 9.39195 | -25.41081 | 35865 ft | 481 kts | 213° |
| 2026-04-18 05:26 | 9.33261 | -25.44230 | 35867 ft | 481 kts | 213° |
| 2026-04-18 05:27 | 9.27328 | -25.47378 | 35866 ft | 481 kts | 213° |
| 2026-04-18 05:27 | 9.21395 | -25.50526 | 35865 ft | 481 kts | 213° |
| 2026-04-18 05:28 | 9.15451 | -25.53678 | 35862 ft | 482 kts | 212° |
| 2026-04-18 05:28 | 9.09502 | -25.56830 | 35864 ft | 482 kts | 212° |
| 2026-04-18 05:29 | 9.03558 | -25.59979 | 35864 ft | 482 kts | 212° |
| 2026-04-18 05:29 | 8.97607 | -25.63130 | 35859 ft | 482 kts | 212° |
| 2026-04-18 05:30 | 8.91661 | -25.66278 | 35863 ft | 482 kts | 212° |
| 2026-04-18 05:30 | 8.86720 | -25.68893 | 35860 ft | 482 kts | 212° |
| 2026-04-18 05:31 | 8.80767 | -25.72044 | 35865 ft | 483 kts | 212° |
| 2026-04-18 05:31 | 8.74808 | -25.75194 | 35865 ft | 483 kts | 212° |
| 2026-04-18 05:32 | 8.68843 | -25.78347 | 35862 ft | 483 kts | 212° |
| 2026-04-18 05:32 | 8.62883 | -25.81496 | 35862 ft | 483 kts | 212° |
| 2026-04-18 05:33 | 8.56923 | -25.84644 | 35860 ft | 483 kts | 212° |
| 2026-04-18 05:33 | 8.50964 | -25.87792 | 35854 ft | 484 kts | 212° |
| 2026-04-18 05:34 | 8.44987 | -25.90948 | 35858 ft | 485 kts | 212° |
| 2026-04-18 05:34 | 8.39004 | -25.94104 | 35860 ft | 485 kts | 212° |
| 2026-04-18 05:35 | 8.33021 | -25.97260 | 35857 ft | 485 kts | 212° |
| 2026-04-18 05:35 | 8.27037 | -26.00415 | 35857 ft | 485 kts | 212° |
| 2026-04-18 05:36 | 8.21059 | -26.03566 | 35857 ft | 485 kts | 212° |
| 2026-04-18 05:36 | 8.15118 | -26.06698 | 35863 ft | 485 kts | 212° |
| 2026-04-18 05:37 | 8.09121 | -26.09857 | 35859 ft | 486 kts | 212° |
| 2026-04-18 05:37 | 8.03125 | -26.13014 | 35854 ft | 486 kts | 212° |
| 2026-04-18 05:38 | 7.97131 | -26.16169 | 35856 ft | 486 kts | 212° |
| 2026-04-18 05:38 | 7.91133 | -26.19325 | 35856 ft | 486 kts | 212° |
| 2026-04-18 05:39 | 7.85134 | -26.22481 | 35853 ft | 486 kts | 212° |
| 2026-04-18 05:39 | 7.79135 | -26.25638 | 35851 ft | 487 kts | 212° |
| 2026-04-18 05:40 | 7.73129 | -26.28795 | 35853 ft | 487 kts | 211° |
| 2026-04-18 05:40 | 7.67121 | -26.31952 | 35854 ft | 486 kts | 211° |
| 2026-04-18 05:41 | 7.61116 | -26.35106 | 35854 ft | 486 kts | 211° |
| 2026-04-18 05:41 | 7.55111 | -26.38260 | 35854 ft | 486 kts | 211° |
| 2026-04-18 05:42 | 7.49107 | -26.41413 | 35854 ft | 486 kts | 211° |
| 2026-04-18 05:42 | 7.43101 | -26.44567 | 35852 ft | 487 kts | 211° |
| 2026-04-18 05:43 | 7.37081 | -26.47725 | 35853 ft | 487 kts | 211° |
| 2026-04-18 05:43 | 7.31065 | -26.50880 | 35853 ft | 487 kts | 211° |
| 2026-04-18 05:44 | 7.25051 | -26.54034 | 35854 ft | 487 kts | 211° |
| 2026-04-18 05:44 | 7.19034 | -26.57189 | 35854 ft | 487 kts | 211° |
| 2026-04-18 05:45 | 7.13020 | -26.60342 | 35849 ft | 487 kts | 211° |
| 2026-04-18 05:45 | 7.07007 | -26.63493 | 35853 ft | 487 kts | 211° |
| 2026-04-18 05:46 | 7.00993 | -26.66642 | 35855 ft | 487 kts | 211° |
| 2026-04-18 05:46 | 6.94974 | -26.69793 | 35853 ft | 487 kts | 211° |
| 2026-04-18 05:47 | 6.88961 | -26.72940 | 35855 ft | 487 kts | 211° |
| 2026-04-18 05:47 | 6.82946 | -26.76089 | 35855 ft | 487 kts | 211° |
| 2026-04-18 05:48 | 6.76931 | -26.79236 | 35852 ft | 487 kts | 211° |
| 2026-04-18 05:48 | 6.70946 | -26.82368 | 35856 ft | 488 kts | 211° |
| 2026-04-18 05:49 | 6.64879 | -26.85539 | 35857 ft | 488 kts | 211° |
| 2026-04-18 05:49 | 6.58899 | -26.88664 | 35857 ft | 488 kts | 211° |
| 2026-04-18 05:50 | 6.52877 | -26.91811 | 35857 ft | 488 kts | 211° |
| 2026-04-18 05:50 | 6.46854 | -26.94958 | 35854 ft | 488 kts | 211° |
| 2026-04-18 05:51 | 6.40830 | -26.98105 | 35854 ft | 488 kts | 211° |
| 2026-04-18 05:51 | 6.34811 | -27.01247 | 35854 ft | 488 kts | 211° |
| 2026-04-18 05:52 | 6.28787 | -27.04392 | 35853 ft | 488 kts | 211° |
| 2026-04-18 05:52 | 6.22768 | -27.07533 | 35854 ft | 487 kts | 211° |
| 2026-04-18 05:53 | 6.16744 | -27.10677 | 35854 ft | 487 kts | 211° |
| 2026-04-18 05:53 | 6.10721 | -27.13818 | 35854 ft | 487 kts | 211° |
| 2026-04-18 05:54 | 6.04701 | -27.16958 | 35850 ft | 488 kts | 211° |
| 2026-04-18 05:54 | 5.98677 | -27.20098 | 35851 ft | 488 kts | 211° |
| 2026-04-18 05:55 | 5.92653 | -27.23238 | 35851 ft | 487 kts | 211° |
| 2026-04-18 05:55 | 5.86627 | -27.26379 | 35849 ft | 487 kts | 211° |
| 2026-04-18 05:56 | 5.80609 | -27.29514 | 35850 ft | 487 kts | 211° |
| 2026-04-18 05:56 | 5.74585 | -27.32652 | 35844 ft | 487 kts | 211° |
| 2026-04-18 05:57 | 5.65540 | -27.37362 | 35843 ft | 488 kts | 211° |
| 2026-04-18 05:58 | 5.59513 | -27.40499 | 35843 ft | 488 kts | 211° |
| 2026-04-18 05:58 | 5.53482 | -27.43637 | 35843 ft | 488 kts | 211° |
| 2026-04-18 05:59 | 5.47454 | -27.46774 | 35843 ft | 488 kts | 211° |
| 2026-04-18 05:59 | 5.41422 | -27.49912 | 35844 ft | 488 kts | 211° |
| 2026-04-18 06:00 | 5.35434 | -27.53029 | 35839 ft | 488 kts | 210° |
| 2026-04-18 06:00 | 5.29408 | -27.56160 | 35844 ft | 488 kts | 210° |
| 2026-04-18 06:01 | 5.23380 | -27.59293 | 35844 ft | 488 kts | 210° |
| 2026-04-18 06:01 | 5.17349 | -27.62427 | 35842 ft | 488 kts | 210° |
| 2026-04-18 06:02 | 5.11317 | -27.65561 | 35843 ft | 488 kts | 210° |
| 2026-04-18 06:02 | 5.05291 | -27.68692 | 35842 ft | 488 kts | 210° |
| 2026-04-18 06:03 | 4.99267 | -27.71822 | 35842 ft | 488 kts | 210° |
| 2026-04-18 06:03 | 4.93238 | -27.74952 | 35840 ft | 488 kts | 210° |
| 2026-04-18 06:04 | 4.87215 | -27.78079 | 35840 ft | 487 kts | 210° |
| 2026-04-18 06:04 | 4.81187 | -27.81209 | 35840 ft | 488 kts | 210° |
| 2026-04-18 06:05 | 4.75162 | -27.84335 | 35838 ft | 488 kts | 210° |
| 2026-04-18 06:05 | 4.69136 | -27.87462 | 35835 ft | 488 kts | 210° |
| 2026-04-18 06:06 | 4.63140 | -27.90572 | 35835 ft | 488 kts | 210° |
| 2026-04-18 06:06 | 4.57063 | -27.93723 | 35829 ft | 488 kts | 210° |
| 2026-04-18 06:07 | 4.51031 | -27.96851 | 35831 ft | 488 kts | 210° |
| 2026-04-18 06:07 | 4.45035 | -27.99959 | 35833 ft | 488 kts | 210° |
| 2026-04-18 06:08 | 4.39002 | -28.03087 | 35831 ft | 488 kts | 210° |
| 2026-04-18 06:08 | 4.32967 | -28.06217 | 35831 ft | 488 kts | 210° |
| 2026-04-18 06:09 | 4.26929 | -28.09346 | 35830 ft | 488 kts | 209° |
| 2026-04-18 06:09 | 4.20895 | -28.12471 | 35832 ft | 488 kts | 210° |
| 2026-04-18 06:10 | 4.14857 | -28.15597 | 35830 ft | 488 kts | 209° |
| 2026-04-18 06:10 | 4.08818 | -28.18724 | 35829 ft | 488 kts | 209° |
| 2026-04-18 06:11 | 4.02787 | -28.21848 | 35829 ft | 488 kts | 210° |
| 2026-04-18 06:11 | 3.96753 | -28.24971 | 35831 ft | 488 kts | 210° |
| 2026-04-18 06:12 | 3.90720 | -28.28094 | 35826 ft | 488 kts | 210° |
| 2026-04-18 06:12 | 3.84687 | -28.31216 | 35826 ft | 488 kts | 210° |
| 2026-04-18 06:13 | 3.78658 | -28.34337 | 35827 ft | 488 kts | 210° |
| 2026-04-18 06:13 | 3.72626 | -28.37458 | 35825 ft | 488 kts | 210° |
| 2026-04-18 06:14 | 3.66598 | -28.40577 | 35822 ft | 488 kts | 209° |
| 2026-04-18 06:14 | 3.60567 | -28.43692 | 35823 ft | 487 kts | 209° |
| 2026-04-18 06:15 | 3.54541 | -28.46806 | 35834 ft | 487 kts | 209° |
| 2026-04-18 06:15 | 3.48515 | -28.49920 | 35822 ft | 488 kts | 210° |
| 2026-04-18 06:16 | 3.42486 | -28.53036 | 35837 ft | 487 kts | 209° |
| 2026-04-18 06:16 | 3.36459 | -28.56150 | 35821 ft | 487 kts | 209° |
| 2026-04-18 06:17 | 3.30432 | -28.59266 | 35835 ft | 487 kts | 209° |
| 2026-04-18 06:17 | 3.24452 | -28.62353 | 35833 ft | 487 kts | 209° |
| 2026-04-18 06:18 | 3.18430 | -28.65464 | 35817 ft | 487 kts | 209° |
| 2026-04-18 06:18 | 3.12409 | -28.68577 | 35819 ft | 487 kts | 209° |
| 2026-04-18 06:19 | 3.07361 | -28.71183 | 35819 ft | 487 kts | 209° |
| 2026-04-18 06:19 | 3.01341 | -28.74291 | 35817 ft | 487 kts | 209° |
| 2026-04-18 06:20 | 2.95322 | -28.77400 | 35834 ft | 487 kts | 209° |
| 2026-04-18 06:20 | 2.89298 | -28.80512 | 35816 ft | 487 kts | 209° |
| 2026-04-18 06:21 | 2.83315 | -28.83600 | 35814 ft | 487 kts | 209° |
| 2026-04-18 06:21 | 2.77288 | -28.86710 | 35827 ft | 487 kts | 209° |
| 2026-04-18 06:22 | 2.71264 | -28.89820 | 35815 ft | 487 kts | 209° |
| 2026-04-18 06:22 | 2.65243 | -28.92930 | 35811 ft | 487 kts | 209° |
| 2026-04-18 06:23 | 2.59208 | -28.96042 | 35822 ft | 488 kts | 208° |
| 2026-04-18 06:23 | 2.53186 | -28.99147 | 35826 ft | 487 kts | 209° |
| 2026-04-18 06:24 | 2.47164 | -29.02255 | 35815 ft | 487 kts | 209° |
| 2026-04-18 06:24 | 2.41148 | -29.05360 | 35817 ft | 487 kts | 209° |
| 2026-04-18 06:25 | 2.35123 | -29.08469 | 35824 ft | 487 kts | 209° |
| 2026-04-18 06:25 | 2.29090 | -29.11586 | 35825 ft | 490 kts | 209° |
| 2026-04-18 06:26 | 2.23020 | -29.14715 | 35830 ft | 491 kts | 208° |
| 2026-04-18 06:26 | 2.16944 | -29.17850 | 35815 ft | 491 kts | 208° |
| 2026-04-18 06:27 | 2.10870 | -29.20985 | 35824 ft | 491 kts | 208° |
| 2026-04-18 06:27 | 2.04795 | -29.24113 | 35825 ft | 491 kts | 208° |
| 2026-04-18 06:28 | 1.98723 | -29.27242 | 35808 ft | 491 kts | 208° |
| 2026-04-18 06:28 | 1.92636 | -29.30385 | 35823 ft | 493 kts | 208° |
| 2026-04-18 06:29 | 1.86534 | -29.33531 | 35812 ft | 493 kts | 208° |
| 2026-04-18 06:29 | 1.80429 | -29.36675 | 35828 ft | 493 kts | 207° |
| 2026-04-18 06:30 | 1.74330 | -29.39815 | 35824 ft | 494 kts | 208° |
| 2026-04-18 06:30 | 1.68228 | -29.42960 | 35822 ft | 494 kts | 208° |
| 2026-04-18 06:31 | 1.62121 | -29.46113 | 35824 ft | 494 kts | 208° |
| 2026-04-18 06:31 | 1.56004 | -29.49265 | 35810 ft | 494 kts | 208° |
| 2026-04-18 06:32 | 1.49884 | -29.52413 | 35822 ft | 495 kts | 207° |
| 2026-04-18 06:32 | 1.43807 | -29.55545 | 35821 ft | 495 kts | 207° |
| 2026-04-18 06:33 | 1.37699 | -29.58692 | 35826 ft | 494 kts | 207° |
| 2026-04-18 06:33 | 1.31585 | -29.61842 | 35811 ft | 494 kts | 207° |
| 2026-04-18 06:34 | 1.25447 | -29.65004 | 35824 ft | 497 kts | 207° |
| 2026-04-18 06:34 | 1.19300 | -29.68170 | 35813 ft | 497 kts | 207° |
| 2026-04-18 06:35 | 1.13149 | -29.71338 | 35814 ft | 497 kts | 207° |
| 2026-04-18 06:35 | 1.06996 | -29.74507 | 35826 ft | 497 kts | 207° |
| 2026-04-18 06:36 | 1.00845 | -29.77675 | 35824 ft | 497 kts | 207° |
| 2026-04-18 06:36 | 0.94701 | -29.80843 | 35810 ft | 497 kts | 207° |
| 2026-04-18 06:37 | 0.88557 | -29.84006 | 35823 ft | 497 kts | 207° |
| 2026-04-18 06:37 | 0.82416 | -29.87168 | 35821 ft | 496 kts | 207° |
| 2026-04-18 06:38 | 0.76273 | -29.90330 | 35821 ft | 496 kts | 207° |
| 2026-04-18 06:38 | 0.70136 | -29.93491 | 35812 ft | 496 kts | 207° |
| 2026-04-18 06:39 | 0.63995 | -29.96654 | 35821 ft | 497 kts | 207° |
| 2026-04-18 06:39 | 0.57853 | -29.99817 | 35821 ft | 496 kts | 207° |
| 2026-04-18 06:40 | 0.51721 | -30.02974 | 35815 ft | 496 kts | 207° |
| 2026-04-18 06:40 | 0.45577 | -30.06137 | 35804 ft | 496 kts | 207° |
| 2026-04-18 06:41 | 0.39480 | -30.09277 | 35812 ft | 496 kts | 207° |
| 2026-04-18 06:41 | 0.33341 | -30.12437 | 35813 ft | 496 kts | 207° |
| 2026-04-18 06:42 | 0.27189 | -30.15605 | 35804 ft | 498 kts | 207° |
| 2026-04-18 06:42 | 0.21034 | -30.18774 | 35799 ft | 497 kts | 207° |
| 2026-04-18 06:43 | 0.14878 | -30.21944 | 35815 ft | 498 kts | 207° |
| 2026-04-18 06:43 | 0.08721 | -30.25114 | 35816 ft | 498 kts | 207° |
| 2026-04-18 06:44 | 0.02564 | -30.28284 | 35816 ft | 498 kts | 207° |
| 2026-04-18 06:44 | -0.03585 | -30.31451 | 35816 ft | 498 kts | 207° |
| 2026-04-18 06:45 | -0.09743 | -30.34622 | 35813 ft | 498 kts | 207° |
| 2026-04-18 06:45 | -0.15905 | -30.37794 | 35814 ft | 498 kts | 207° |
| 2026-04-18 06:46 | -0.22062 | -30.40964 | 35812 ft | 498 kts | 207° |
| 2026-04-18 06:46 | -0.28224 | -30.44136 | 35811 ft | 498 kts | 207° |
| 2026-04-18 06:47 | -0.34390 | -30.47311 | 35799 ft | 498 kts | 207° |
| 2026-04-18 06:47 | -0.40554 | -30.50485 | 35807 ft | 498 kts | 207° |
| 2026-04-18 06:48 | -0.46718 | -30.53659 | 35817 ft | 498 kts | 207° |
| 2026-04-18 06:48 | -0.52884 | -30.56834 | 35817 ft | 498 kts | 207° |
| 2026-04-18 06:49 | -0.59006 | -30.59986 | 35808 ft | 498 kts | 207° |
| 2026-04-18 06:49 | -0.65169 | -30.63160 | 35808 ft | 498 kts | 207° |
| 2026-04-18 06:50 | -0.71329 | -30.66334 | 35811 ft | 498 kts | 206° |
| 2026-04-18 06:50 | -0.77486 | -30.69503 | 35807 ft | 498 kts | 207° |
| 2026-04-18 06:51 | -0.83653 | -30.72678 | 35811 ft | 498 kts | 207° |
| 2026-04-18 06:51 | -0.89821 | -30.75855 | 35810 ft | 498 kts | 207° |
| 2026-04-18 06:52 | -0.95988 | -30.79032 | 35811 ft | 498 kts | 207° |
| 2026-04-18 06:52 | -1.02154 | -30.82207 | 35804 ft | 499 kts | 207° |
| 2026-04-18 06:53 | -1.08329 | -30.85388 | 35809 ft | 499 kts | 207° |
| 2026-04-18 06:53 | -1.14506 | -30.88570 | 35809 ft | 499 kts | 207° |
| 2026-04-18 06:54 | -1.20682 | -30.91751 | 35798 ft | 499 kts | 207° |
| 2026-04-18 06:54 | -1.26855 | -30.94932 | 35808 ft | 499 kts | 207° |
| 2026-04-18 06:55 | -1.33029 | -30.98112 | 35808 ft | 499 kts | 207° |
| 2026-04-18 06:55 | -1.39207 | -31.01296 | 35808 ft | 500 kts | 207° |
| 2026-04-18 06:56 | -1.45399 | -31.04485 | 35813 ft | 500 kts | 207° |
| 2026-04-18 06:56 | -1.51584 | -31.07673 | 35810 ft | 500 kts | 207° |
| 2026-04-18 06:57 | -1.57732 | -31.10841 | 35794 ft | 500 kts | 207° |
| 2026-04-18 06:57 | -1.67056 | -31.15645 | 35807 ft | 500 kts | 207° |
| 2026-04-18 06:58 | -1.73210 | -31.18817 | 35810 ft | 501 kts | 207° |
| 2026-04-18 06:58 | -1.79402 | -31.22009 | 35795 ft | 501 kts | 207° |
| 2026-04-18 06:59 | -1.85597 | -31.25202 | 35793 ft | 501 kts | 207° |
| 2026-04-18 06:59 | -1.91792 | -31.28396 | 35807 ft | 501 kts | 207° |
| 2026-04-18 07:00 | -1.97986 | -31.31588 | 35803 ft | 501 kts | 207° |
| 2026-04-18 07:00 | -2.04185 | -31.34784 | 35805 ft | 502 kts | 207° |
| 2026-04-18 07:01 | -2.10389 | -31.37984 | 35805 ft | 501 kts | 207° |
| 2026-04-18 07:01 | -2.16593 | -31.41184 | 35798 ft | 501 kts | 207° |
| 2026-04-18 07:02 | -2.22794 | -31.44382 | 35802 ft | 501 kts | 207° |
| 2026-04-18 07:02 | -2.28994 | -31.47579 | 35802 ft | 501 kts | 207° |
| 2026-04-18 07:03 | -2.35194 | -31.50774 | 35796 ft | 501 kts | 207° |
| 2026-04-18 07:03 | -2.41393 | -31.53974 | 35803 ft | 501 kts | 207° |
| 2026-04-18 07:04 | -2.47588 | -31.57171 | 35805 ft | 501 kts | 207° |
| 2026-04-18 07:04 | -2.53786 | -31.60370 | 35806 ft | 501 kts | 207° |
| 2026-04-18 07:05 | -2.59983 | -31.63568 | 35802 ft | 501 kts | 207° |
| 2026-04-18 07:05 | -2.66176 | -31.66761 | 35804 ft | 500 kts | 208° |
| 2026-04-18 07:06 | -2.72362 | -31.69956 | 35802 ft | 500 kts | 208° |
| 2026-04-18 07:06 | -2.77501 | -31.72609 | 35803 ft | 500 kts | 208° |
| 2026-04-18 07:07 | -2.83690 | -31.75806 | 35804 ft | 500 kts | 208° |
| 2026-04-18 07:07 | -2.90876 | -31.79517 | 35806 ft | 500 kts | 208° |
| 2026-04-18 07:08 | -2.96061 | -31.82192 | 35803 ft | 500 kts | 208° |
| 2026-04-18 07:08 | -3.02241 | -31.85384 | 35810 ft | 500 kts | 208° |
| 2026-04-18 07:09 | -3.08425 | -31.88580 | 35811 ft | 500 kts | 208° |
| 2026-04-18 07:09 | -3.14611 | -31.91776 | 35809 ft | 500 kts | 208° |
| 2026-04-18 07:10 | -3.20755 | -31.94950 | 35810 ft | 500 kts | 208° |
| 2026-04-18 07:10 | -3.26937 | -31.98145 | 35809 ft | 500 kts | 208° |
| 2026-04-18 07:11 | -3.33107 | -32.01334 | 35809 ft | 499 kts | 208° |
| 2026-04-18 07:11 | -3.39277 | -32.04523 | 35809 ft | 499 kts | 208° |
| 2026-04-18 07:12 | -3.45454 | -32.07718 | 35812 ft | 499 kts | 208° |
| 2026-04-18 07:12 | -3.51637 | -32.10915 | 35813 ft | 500 kts | 208° |
| 2026-04-18 07:13 | -3.57821 | -32.14113 | 35809 ft | 501 kts | 208° |
| 2026-04-18 07:13 | -3.64003 | -32.17310 | 35812 ft | 500 kts | 208° |
| 2026-04-18 07:14 | -3.70193 | -32.20513 | 35810 ft | 500 kts | 208° |
| 2026-04-18 07:14 | -3.76337 | -32.23691 | 35806 ft | 500 kts | 208° |
| 2026-04-18 07:15 | -3.82521 | -32.26890 | 35807 ft | 501 kts | 208° |
| 2026-04-18 07:15 | -3.88703 | -32.30090 | 35800 ft | 500 kts | 208° |
| 2026-04-18 07:16 | -3.94882 | -32.33288 | 35803 ft | 499 kts | 208° |
| 2026-04-18 07:16 | -4.01049 | -32.36482 | 35808 ft | 500 kts | 208° |
| 2026-04-18 07:17 | -4.07228 | -32.39684 | 35810 ft | 500 kts | 208° |
| 2026-04-18 07:17 | -4.13399 | -32.42880 | 35811 ft | 499 kts | 208° |
| 2026-04-18 07:18 | -4.19578 | -32.46082 | 35813 ft | 499 kts | 208° |
| 2026-04-18 07:18 | -4.25768 | -32.49288 | 35817 ft | 500 kts | 208° |
| 2026-04-18 07:19 | -4.31952 | -32.52490 | 35817 ft | 501 kts | 208° |
| 2026-04-18 07:19 | -4.38137 | -32.55696 | 35814 ft | 501 kts | 208° |
| 2026-04-18 07:20 | -4.44328 | -32.58904 | 35814 ft | 500 kts | 208° |
| 2026-04-18 07:20 | -4.50518 | -32.62115 | 35819 ft | 501 kts | 207° |
| 2026-04-18 07:21 | -4.56672 | -32.65310 | 35824 ft | 502 kts | 207° |
| 2026-04-18 07:21 | -4.62872 | -32.68520 | 35815 ft | 502 kts | 207° |
| 2026-04-18 07:22 | -4.69078 | -32.71737 | 35806 ft | 501 kts | 207° |
| 2026-04-18 07:22 | -4.75282 | -32.74956 | 35822 ft | 501 kts | 207° |
| 2026-04-18 07:23 | -4.81480 | -32.78172 | 35827 ft | 502 kts | 207° |
| 2026-04-18 07:23 | -4.87686 | -32.81393 | 35810 ft | 503 kts | 207° |
| 2026-04-18 07:24 | -4.93892 | -32.84615 | 35809 ft | 502 kts | 207° |
| 2026-04-18 07:24 | -5.00104 | -32.87841 | 35812 ft | 502 kts | 207° |
| 2026-04-18 07:25 | -5.06320 | -32.91072 | 35824 ft | 504 kts | 207° |
| 2026-04-18 07:25 | -5.12534 | -32.94299 | 35825 ft | 503 kts | 207° |
| 2026-04-18 07:26 | -5.18762 | -32.97534 | 35816 ft | 504 kts | 207° |
| 2026-04-18 07:26 | -5.24999 | -33.00776 | 35829 ft | 504 kts | 207° |
| 2026-04-18 07:27 | -5.31230 | -33.04015 | 35827 ft | 505 kts | 207° |
| 2026-04-18 07:27 | -5.37453 | -33.07251 | 35825 ft | 504 kts | 207° |
| 2026-04-18 07:28 | -5.43679 | -33.10488 | 35817 ft | 503 kts | 207° |
| 2026-04-18 07:28 | -5.49918 | -33.13732 | 35820 ft | 504 kts | 207° |
| 2026-04-18 07:29 | -5.56148 | -33.16974 | 35820 ft | 505 kts | 208° |
| 2026-04-18 07:29 | -5.62348 | -33.20202 | 35821 ft | 506 kts | 208° |
| 2026-04-18 07:30 | -5.68633 | -33.23475 | 35823 ft | 505 kts | 207° |
| 2026-04-18 07:30 | -5.74837 | -33.26705 | 35826 ft | 506 kts | 208° |
| 2026-04-18 07:31 | -5.81093 | -33.29962 | 35819 ft | 506 kts | 208° |
| 2026-04-18 07:31 | -5.87339 | -33.33218 | 35819 ft | 506 kts | 208° |
| 2026-04-18 07:32 | -5.93584 | -33.36473 | 35816 ft | 506 kts | 208° |
| 2026-04-18 07:32 | -5.99835 | -33.39732 | 35820 ft | 506 kts | 208° |
| 2026-04-18 07:33 | -6.06084 | -33.42985 | 35818 ft | 507 kts | 208° |
| 2026-04-18 07:33 | -6.12358 | -33.46254 | 35821 ft | 508 kts | 209° |
| 2026-04-18 07:34 | -6.18639 | -33.49535 | 35821 ft | 509 kts | 209° |
| 2026-04-18 07:34 | -6.24919 | -33.52814 | 35822 ft | 509 kts | 209° |
| 2026-04-18 07:35 | -6.31202 | -33.56095 | 35825 ft | 509 kts | 208° |
| 2026-04-18 07:35 | -6.37487 | -33.59375 | 35825 ft | 508 kts | 209° |
| 2026-04-18 07:36 | -6.43758 | -33.62650 | 35825 ft | 508 kts | 209° |
| 2026-04-18 07:36 | -6.50025 | -33.65925 | 35826 ft | 508 kts | 209° |
| 2026-04-18 07:37 | -6.56298 | -33.69203 | 35829 ft | 508 kts | 209° |
| 2026-04-18 07:37 | -6.62565 | -33.72478 | 35826 ft | 508 kts | 209° |
| 2026-04-18 07:38 | -6.68836 | -33.75757 | 35827 ft | 508 kts | 209° |
| 2026-04-18 07:38 | -6.75109 | -33.79038 | 35828 ft | 508 kts | 209° |
| 2026-04-18 07:39 | -6.81384 | -33.82321 | 35827 ft | 508 kts | 209° |
| 2026-04-18 07:39 | -6.87662 | -33.85606 | 35827 ft | 508 kts | 209° |
| 2026-04-18 07:40 | -6.93929 | -33.88887 | 35826 ft | 508 kts | 209° |
| 2026-04-18 07:40 | -7.00150 | -33.92142 | 35829 ft | 507 kts | 209° |
| 2026-04-18 07:41 | -7.06408 | -33.95421 | 35828 ft | 507 kts | 209° |
| 2026-04-18 07:41 | -7.12664 | -33.98699 | 35827 ft | 507 kts | 209° |
| 2026-04-18 07:42 | -7.18916 | -34.01976 | 35827 ft | 507 kts | 209° |
| 2026-04-18 07:42 | -7.25172 | -34.05256 | 35829 ft | 506 kts | 209° |
| 2026-04-18 07:43 | -7.31410 | -34.08527 | 35834 ft | 505 kts | 209° |
| 2026-04-18 07:43 | -7.37641 | -34.11796 | 35832 ft | 505 kts | 209° |
| 2026-04-18 07:44 | -7.43869 | -34.15064 | 35831 ft | 505 kts | 209° |
| 2026-04-18 07:44 | -7.50101 | -34.18335 | 35832 ft | 505 kts | 209° |
| 2026-04-18 07:45 | -7.56326 | -34.21605 | 35828 ft | 504 kts | 209° |
| 2026-04-18 07:45 | -7.62536 | -34.24866 | 35831 ft | 503 kts | 209° |
| 2026-04-18 07:46 | -7.68749 | -34.28130 | 35835 ft | 503 kts | 209° |
| 2026-04-18 07:46 | -7.74956 | -34.31393 | 35834 ft | 503 kts | 209° |
| 2026-04-18 07:47 | -7.81162 | -34.34657 | 35841 ft | 503 kts | 209° |
| 2026-04-18 07:47 | -7.87367 | -34.37914 | 35844 ft | 502 kts | 210° |
| 2026-04-18 07:48 | -7.93557 | -34.41172 | 35840 ft | 502 kts | 210° |
| 2026-04-18 07:48 | -7.99745 | -34.44435 | 35840 ft | 502 kts | 210° |
| 2026-04-18 07:49 | -8.05933 | -34.47691 | 35839 ft | 502 kts | 210° |
| 2026-04-18 07:49 | -8.12086 | -34.50928 | 35837 ft | 502 kts | 210° |
| 2026-04-18 07:50 | -8.18275 | -34.54183 | 35850 ft | 501 kts | 211° |
| 2026-04-18 07:50 | -8.24460 | -34.57447 | 35847 ft | 501 kts | 211° |
| 2026-04-18 07:51 | -8.30644 | -34.60710 | 35850 ft | 501 kts | 211° |
| 2026-04-18 07:51 | -8.36833 | -34.63975 | 35851 ft | 501 kts | 211° |
| 2026-04-18 07:52 | -8.43016 | -34.67238 | 35858 ft | 501 kts | 211° |
| 2026-04-18 07:52 | -8.49206 | -34.70503 | 35853 ft | 502 kts | 211° |
| 2026-04-18 07:53 | -8.55395 | -34.73773 | 35855 ft | 502 kts | 211° |
| 2026-04-18 07:53 | -8.61590 | -34.77046 | 35854 ft | 502 kts | 211° |
| 2026-04-18 07:54 | -8.67786 | -34.80320 | 35854 ft | 503 kts | 211° |
| 2026-04-18 07:54 | -8.73984 | -34.83595 | 35854 ft | 502 kts | 211° |
| 2026-04-18 07:55 | -8.80172 | -34.86867 | 35855 ft | 502 kts | 211° |
| 2026-04-18 07:55 | -8.86316 | -34.90118 | 35854 ft | 501 kts | 211° |
| 2026-04-18 07:56 | -8.92539 | -34.93411 | 35854 ft | 501 kts | 211° |
| 2026-04-18 07:56 | -8.98723 | -34.96685 | 35855 ft | 501 kts | 211° |
| 2026-04-18 07:57 | -9.04857 | -34.99941 | 35858 ft | 501 kts | 210° |
| 2026-04-18 07:57 | -9.11035 | -35.03214 | 35855 ft | 502 kts | 210° |
| 2026-04-18 07:58 | -9.19325 | -35.07604 | 35858 ft | 502 kts | 210° |
| 2026-04-18 07:59 | -9.25515 | -35.10885 | 35857 ft | 502 kts | 210° |
| 2026-04-18 07:59 | -9.31703 | -35.14170 | 35858 ft | 502 kts | 210° |
| 2026-04-18 08:00 | -9.37845 | -35.17429 | 35860 ft | 501 kts | 210° |
| 2026-04-18 08:00 | -9.44021 | -35.20707 | 35865 ft | 501 kts | 210° |
| 2026-04-18 08:01 | -9.50194 | -35.23986 | 35866 ft | 501 kts | 210° |
| 2026-04-18 08:01 | -9.56375 | -35.27272 | 35864 ft | 501 kts | 210° |
| 2026-04-18 08:02 | -9.62554 | -35.30556 | 35862 ft | 501 kts | 210° |
| 2026-04-18 08:02 | -9.68732 | -35.33841 | 35862 ft | 501 kts | 210° |
| 2026-04-18 08:03 | -9.74907 | -35.37125 | 35861 ft | 501 kts | 210° |
| 2026-04-18 08:03 | -9.81086 | -35.40414 | 35862 ft | 501 kts | 210° |
| 2026-04-18 08:04 | -9.87265 | -35.43705 | 35864 ft | 501 kts | 210° |
| 2026-04-18 08:04 | -9.93423 | -35.46987 | 35862 ft | 500 kts | 210° |
| 2026-04-18 08:05 | -9.99578 | -35.50266 | 35863 ft | 499 kts | 210° |
| 2026-04-18 08:05 | -10.05732 | -35.53548 | 35863 ft | 499 kts | 210° |
| 2026-04-18 08:06 | -10.11882 | -35.56828 | 35862 ft | 499 kts | 210° |
| 2026-04-18 08:06 | -10.18025 | -35.60105 | 35863 ft | 498 kts | 210° |
| 2026-04-18 08:07 | -10.24158 | -35.63379 | 35863 ft | 498 kts | 210° |
| 2026-04-18 08:07 | -10.30286 | -35.66653 | 35864 ft | 497 kts | 210° |
| 2026-04-18 08:08 | -10.36410 | -35.69925 | 35863 ft | 497 kts | 210° |
| 2026-04-18 08:08 | -10.42538 | -35.73201 | 35865 ft | 497 kts | 210° |
| 2026-04-18 08:09 | -10.48654 | -35.76474 | 35868 ft | 495 kts | 210° |
| 2026-04-18 08:09 | -10.54745 | -35.79734 | 35865 ft | 495 kts | 210° |
| 2026-04-18 08:10 | -10.60795 | -35.82971 | 35864 ft | 494 kts | 210° |
| 2026-04-18 08:10 | -10.66886 | -35.86233 | 35865 ft | 494 kts | 210° |
| 2026-04-18 08:11 | -10.72966 | -35.89491 | 35868 ft | 493 kts | 210° |
| 2026-04-18 08:11 | -10.79021 | -35.92737 | 35865 ft | 491 kts | 210° |
| 2026-04-18 08:12 | -10.85066 | -35.95978 | 35861 ft | 491 kts | 210° |
| 2026-04-18 08:12 | -10.91114 | -35.99223 | 35862 ft | 491 kts | 210° |
| 2026-04-18 08:13 | -10.97149 | -36.02465 | 35863 ft | 490 kts | 209° |
| 2026-04-18 08:13 | -11.03168 | -36.05696 | 35863 ft | 488 kts | 209° |
| 2026-04-18 08:14 | -11.09168 | -36.08922 | 35863 ft | 488 kts | 209° |
| 2026-04-18 08:14 | -11.15169 | -36.12149 | 35869 ft | 487 kts | 209° |
| 2026-04-18 08:15 | -11.21169 | -36.15374 | 35866 ft | 488 kts | 209° |
| 2026-04-18 08:15 | -11.27170 | -36.18604 | 35874 ft | 487 kts | 209° |
| 2026-04-18 08:16 | -11.33138 | -36.21821 | 35871 ft | 484 kts | 209° |
| 2026-04-18 08:16 | -11.39095 | -36.25029 | 35868 ft | 484 kts | 209° |
| 2026-04-18 08:17 | -11.45044 | -36.28235 | 35866 ft | 482 kts | 209° |
| 2026-04-18 08:17 | -11.50973 | -36.31429 | 35864 ft | 482 kts | 208° |
| 2026-04-18 08:18 | -11.56898 | -36.34625 | 35869 ft | 481 kts | 209° |
| 2026-04-18 08:18 | -11.62816 | -36.37823 | 35873 ft | 481 kts | 209° |
| 2026-04-18 08:19 | -11.68693 | -36.40993 | 35872 ft | 481 kts | 209° |
| 2026-04-18 08:19 | -11.74614 | -36.44185 | 35874 ft | 481 kts | 209° |
| 2026-04-18 08:20 | -11.80531 | -36.47381 | 35875 ft | 481 kts | 209° |
| 2026-04-18 08:20 | -11.86447 | -36.50585 | 35873 ft | 481 kts | 209° |
| 2026-04-18 08:21 | -11.92366 | -36.53790 | 35873 ft | 481 kts | 209° |
| 2026-04-18 08:21 | -11.98285 | -36.56995 | 35873 ft | 481 kts | 209° |
| 2026-04-18 08:22 | -12.04191 | -36.60194 | 35878 ft | 481 kts | 209° |
| 2026-04-18 08:22 | -12.10113 | -36.63401 | 35875 ft | 481 kts | 209° |
| 2026-04-18 08:23 | -12.16030 | -36.66608 | 35876 ft | 482 kts | 209° |
| 2026-04-18 08:23 | -12.21952 | -36.69820 | 35876 ft | 482 kts | 209° |
| 2026-04-18 08:24 | -12.27878 | -36.73035 | 35870 ft | 482 kts | 209° |
| 2026-04-18 08:24 | -12.33757 | -36.76227 | 35871 ft | 482 kts | 209° |
| 2026-04-18 08:25 | -12.39681 | -36.79445 | 35868 ft | 482 kts | 209° |
| 2026-04-18 08:25 | -12.45600 | -36.82660 | 35873 ft | 482 kts | 209° |
| 2026-04-18 08:26 | -12.51524 | -36.85880 | 35870 ft | 482 kts | 209° |
| 2026-04-18 08:26 | -12.57444 | -36.89101 | 35874 ft | 482 kts | 209° |
| 2026-04-18 08:27 | -12.63367 | -36.92324 | 35873 ft | 481 kts | 209° |
| 2026-04-18 08:27 | -12.69270 | -36.95537 | 35874 ft | 480 kts | 209° |
| 2026-04-18 08:28 | -12.75164 | -36.98749 | 35879 ft | 480 kts | 209° |
| 2026-04-18 08:28 | -12.81043 | -37.01955 | 35880 ft | 478 kts | 209° |
| 2026-04-18 08:29 | -12.86922 | -37.05161 | 35876 ft | 478 kts | 209° |
| 2026-04-18 08:29 | -12.92791 | -37.08362 | 35877 ft | 477 kts | 209° |
| 2026-04-18 08:30 | -12.98650 | -37.11561 | 35878 ft | 477 kts | 209° |
| 2026-04-18 08:30 | -13.04506 | -37.14761 | 35882 ft | 477 kts | 209° |
| 2026-04-18 08:31 | -13.10369 | -37.17965 | 35880 ft | 477 kts | 209° |
| 2026-04-18 08:31 | -13.16225 | -37.21168 | 35887 ft | 477 kts | 209° |
| 2026-04-18 08:32 | -13.22083 | -37.24370 | 35884 ft | 476 kts | 210° |
| 2026-04-18 08:32 | -13.27929 | -37.27572 | 35881 ft | 476 kts | 210° |
| 2026-04-18 08:33 | -13.33773 | -37.30775 | 35886 ft | 476 kts | 210° |
| 2026-04-18 08:33 | -13.39620 | -37.33979 | 35882 ft | 476 kts | 210° |
| 2026-04-18 08:34 | -13.45461 | -37.37180 | 35883 ft | 476 kts | 210° |
| 2026-04-18 08:34 | -13.51299 | -37.40384 | 35884 ft | 475 kts | 210° |
| 2026-04-18 08:35 | -13.57139 | -37.43591 | 35888 ft | 475 kts | 210° |
| 2026-04-18 08:35 | -13.62976 | -37.46798 | 35887 ft | 476 kts | 210° |
| 2026-04-18 08:36 | -13.68812 | -37.50005 | 35893 ft | 475 kts | 210° |
| 2026-04-18 08:36 | -13.74644 | -37.53210 | 35889 ft | 475 kts | 210° |
| 2026-04-18 08:37 | -13.80472 | -37.56418 | 35887 ft | 475 kts | 210° |
| 2026-04-18 08:37 | -13.86298 | -37.59627 | 35887 ft | 475 kts | 210° |
| 2026-04-18 08:38 | -13.92121 | -37.62835 | 35887 ft | 475 kts | 210° |
| 2026-04-18 08:38 | -13.97947 | -37.66043 | 35886 ft | 475 kts | 210° |
| 2026-04-18 08:39 | -14.03729 | -37.69233 | 35894 ft | 475 kts | 210° |
| 2026-04-18 08:39 | -14.09554 | -37.72449 | 35895 ft | 475 kts | 210° |
| 2026-04-18 08:40 | -14.15382 | -37.75666 | 35895 ft | 475 kts | 210° |
| 2026-04-18 08:40 | -14.21208 | -37.78884 | 35900 ft | 475 kts | 211° |
| 2026-04-18 08:41 | -14.27030 | -37.82101 | 35892 ft | 475 kts | 211° |
| 2026-04-18 08:41 | -14.32853 | -37.85323 | 35893 ft | 475 kts | 211° |
| 2026-04-18 08:42 | -14.38674 | -37.88546 | 35883 ft | 475 kts | 211° |
| 2026-04-18 08:42 | -14.44496 | -37.91770 | 35886 ft | 475 kts | 211° |
| 2026-04-18 08:43 | -14.50318 | -37.94994 | 35895 ft | 474 kts | 211° |
| 2026-04-18 08:43 | -14.56130 | -37.98218 | 35885 ft | 474 kts | 211° |
| 2026-04-18 08:44 | -14.61937 | -38.01440 | 35891 ft | 474 kts | 211° |
| 2026-04-18 08:44 | -14.67743 | -38.04663 | 35897 ft | 474 kts | 211° |
| 2026-04-18 08:45 | -14.73548 | -38.07886 | 35895 ft | 473 kts | 211° |
| 2026-04-18 08:45 | -14.79343 | -38.11107 | 35895 ft | 473 kts | 211° |
| 2026-04-18 08:46 | -14.84158 | -38.13785 | 35894 ft | 473 kts | 211° |
| 2026-04-18 08:46 | -14.89947 | -38.17006 | 35895 ft | 473 kts | 211° |
| 2026-04-18 08:47 | -14.95741 | -38.20233 | 35899 ft | 473 kts | 211° |
| 2026-04-18 08:47 | -15.01525 | -38.23456 | 35894 ft | 472 kts | 211° |
| 2026-04-18 08:48 | -15.07315 | -38.26683 | 35909 ft | 472 kts | 211° |
| 2026-04-18 08:48 | -15.13103 | -38.29911 | 35904 ft | 472 kts | 211° |
| 2026-04-18 08:49 | -15.18888 | -38.33140 | 35910 ft | 472 kts | 211° |
| 2026-04-18 08:49 | -15.24673 | -38.36369 | 35904 ft | 471 kts | 211° |
| 2026-04-18 08:50 | -15.30444 | -38.39595 | 35901 ft | 471 kts | 211° |
| 2026-04-18 08:50 | -15.36169 | -38.42796 | 35904 ft | 471 kts | 211° |
| 2026-04-18 08:51 | -15.41937 | -38.46025 | 35905 ft | 471 kts | 211° |
| 2026-04-18 08:51 | -15.47699 | -38.49250 | 35916 ft | 470 kts | 211° |
| 2026-04-18 08:52 | -15.53447 | -38.52469 | 35911 ft | 469 kts | 211° |
| 2026-04-18 08:52 | -15.59192 | -38.55691 | 35910 ft | 469 kts | 211° |
| 2026-04-18 08:53 | -15.64934 | -38.58912 | 35909 ft | 469 kts | 211° |
| 2026-04-18 08:53 | -15.70679 | -38.62138 | 35909 ft | 469 kts | 211° |
| 2026-04-18 08:54 | -15.76413 | -38.65356 | 35910 ft | 468 kts | 211° |
| 2026-04-18 08:54 | -15.82144 | -38.68578 | 35916 ft | 468 kts | 211° |
| 2026-04-18 08:55 | -15.87874 | -38.71801 | 35916 ft | 468 kts | 211° |
| 2026-04-18 08:55 | -15.93605 | -38.75027 | 35917 ft | 468 kts | 211° |
| 2026-04-18 08:56 | -15.99336 | -38.78253 | 35919 ft | 468 kts | 212° |
| 2026-04-18 08:56 | -16.05056 | -38.81477 | 35918 ft | 468 kts | 212° |
| 2026-04-18 08:57 | -16.13634 | -38.86316 | 35917 ft | 468 kts | 212° |
| 2026-04-18 08:57 | -16.19357 | -38.89547 | 35916 ft | 468 kts | 212° |
| 2026-04-18 08:58 | -16.25042 | -38.92755 | 35919 ft | 468 kts | 212° |
| 2026-04-18 08:58 | -16.30760 | -38.95988 | 35916 ft | 467 kts | 212° |
| 2026-04-18 08:59 | -16.36475 | -38.99221 | 35913 ft | 468 kts | 212° |
| 2026-04-18 08:59 | -16.42189 | -39.02455 | 35912 ft | 468 kts | 212° |
| 2026-04-18 09:00 | -16.47909 | -39.05692 | 35912 ft | 467 kts | 212° |
| 2026-04-18 09:00 | -16.53613 | -39.08925 | 35913 ft | 467 kts | 212° |
| 2026-04-18 09:01 | -16.59318 | -39.12162 | 35917 ft | 467 kts | 212° |
| 2026-04-18 09:01 | -16.65025 | -39.15403 | 35918 ft | 467 kts | 212° |
| 2026-04-18 09:02 | -16.70740 | -39.18646 | 35929 ft | 467 kts | 212° |
| 2026-04-18 09:02 | -16.76436 | -39.21882 | 35931 ft | 466 kts | 212° |
| 2026-04-18 09:03 | -16.82128 | -39.25120 | 35925 ft | 466 kts | 212° |
| 2026-04-18 09:03 | -16.87814 | -39.28357 | 35924 ft | 466 kts | 212° |
| 2026-04-18 09:04 | -16.93509 | -39.31600 | 35946 ft | 465 kts | 213° |
| 2026-04-18 09:04 | -16.99182 | -39.34829 | 35930 ft | 463 kts | 213° |
| 2026-04-18 09:05 | -17.04799 | -39.38035 | 35925 ft | 463 kts | 213° |
| 2026-04-18 09:05 | -17.10455 | -39.41263 | 35926 ft | 463 kts | 213° |
| 2026-04-18 09:06 | -17.16111 | -39.44494 | 35928 ft | 463 kts | 213° |
| 2026-04-18 09:06 | -17.21761 | -39.47719 | 35933 ft | 462 kts | 213° |
| 2026-04-18 09:07 | -17.27401 | -39.50945 | 35933 ft | 462 kts | 213° |
| 2026-04-18 09:07 | -17.33036 | -39.54171 | 35933 ft | 462 kts | 213° |
| 2026-04-18 09:08 | -17.38670 | -39.57398 | 35928 ft | 462 kts | 213° |
| 2026-04-18 09:08 | -17.44299 | -39.60624 | 35934 ft | 461 kts | 213° |
| 2026-04-18 09:09 | -17.49926 | -39.63850 | 35932 ft | 460 kts | 213° |
| 2026-04-18 09:09 | -17.55543 | -39.67074 | 35935 ft | 460 kts | 213° |
| 2026-04-18 09:10 | -17.61167 | -39.70305 | 35932 ft | 461 kts | 213° |
| 2026-04-18 09:10 | -17.66781 | -39.73528 | 35936 ft | 459 kts | 213° |
| 2026-04-18 09:11 | -17.72382 | -39.76749 | 35934 ft | 458 kts | 213° |
| 2026-04-18 09:11 | -17.77975 | -39.79970 | 35933 ft | 458 kts | 213° |
| 2026-04-18 09:12 | -17.83566 | -39.83192 | 35937 ft | 458 kts | 213° |
| 2026-04-18 09:12 | -17.89149 | -39.86408 | 35950 ft | 457 kts | 214° |
| 2026-04-18 09:13 | -17.94677 | -39.89595 | 35937 ft | 456 kts | 214° |
| 2026-04-18 09:13 | -18.00236 | -39.92806 | 35931 ft | 456 kts | 214° |
| 2026-04-18 09:14 | -18.05792 | -39.96016 | 35935 ft | 456 kts | 214° |
| 2026-04-18 09:14 | -18.11349 | -39.99228 | 35945 ft | 456 kts | 214° |
| 2026-04-18 09:15 | -18.16895 | -40.02434 | 35939 ft | 455 kts | 214° |
| 2026-04-18 09:15 | -18.22435 | -40.05643 | 35936 ft | 454 kts | 214° |
| 2026-04-18 09:16 | -18.27974 | -40.08852 | 35938 ft | 454 kts | 214° |
| 2026-04-18 09:16 | -18.33511 | -40.12063 | 35957 ft | 454 kts | 214° |
| 2026-04-18 09:17 | -18.39041 | -40.15265 | 35943 ft | 453 kts | 214° |
| 2026-04-18 09:17 | -18.44562 | -40.18473 | 35937 ft | 453 kts | 214° |
| 2026-04-18 09:18 | -18.50076 | -40.21679 | 35935 ft | 453 kts | 215° |
| 2026-04-18 09:18 | -18.55591 | -40.24889 | 35936 ft | 453 kts | 214° |
| 2026-04-18 09:19 | -18.61095 | -40.28087 | 35947 ft | 450 kts | 215° |
| 2026-04-18 09:19 | -18.66573 | -40.31279 | 35930 ft | 450 kts | 215° |
| 2026-04-18 09:20 | -18.72045 | -40.34470 | 35930 ft | 449 kts | 215° |
| 2026-04-18 09:20 | -18.77517 | -40.37663 | 35923 ft | 449 kts | 215° |
| 2026-04-18 09:21 | -18.82986 | -40.40852 | 35944 ft | 447 kts | 215° |
| 2026-04-18 09:21 | -18.88433 | -40.44032 | 35938 ft | 447 kts | 216° |
| 2026-04-18 09:22 | -18.93877 | -40.47217 | 35935 ft | 447 kts | 216° |
| 2026-04-18 09:22 | -18.99286 | -40.50382 | 35941 ft | 447 kts | 216° |
| 2026-04-18 09:23 | -19.04724 | -40.53563 | 35952 ft | 446 kts | 216° |
| 2026-04-18 09:23 | -19.10156 | -40.56746 | 35943 ft | 446 kts | 216° |
| 2026-04-18 09:24 | -19.15580 | -40.59926 | 35943 ft | 446 kts | 216° |
| 2026-04-18 09:24 | -19.21004 | -40.63110 | 35940 ft | 446 kts | 216° |
| 2026-04-18 09:25 | -19.26431 | -40.66294 | 35962 ft | 445 kts | 216° |
| 2026-04-18 09:25 | -19.31840 | -40.69472 | 35946 ft | 445 kts | 216° |
| 2026-04-18 09:26 | -19.37256 | -40.72659 | 35941 ft | 445 kts | 216° |
| 2026-04-18 09:26 | -19.42666 | -40.75842 | 35947 ft | 445 kts | 216° |
| 2026-04-18 09:27 | -19.48077 | -40.79029 | 35966 ft | 445 kts | 216° |
| 2026-04-18 09:27 | -19.53490 | -40.82218 | 35953 ft | 444 kts | 216° |
| 2026-04-18 09:28 | -19.58898 | -40.85409 | 35951 ft | 445 kts | 216° |
| 2026-04-18 09:28 | -19.64302 | -40.88599 | 35951 ft | 444 kts | 216° |
| 2026-04-18 09:29 | -19.69706 | -40.91789 | 35952 ft | 445 kts | 216° |
| 2026-04-18 09:29 | -19.75115 | -40.94982 | 35964 ft | 445 kts | 216° |
| 2026-04-18 09:30 | -19.80524 | -40.98179 | 35945 ft | 444 kts | 216° |
| 2026-04-18 09:30 | -19.85921 | -41.01373 | 35959 ft | 445 kts | 216° |
| 2026-04-18 09:31 | -19.91327 | -41.04574 | 35986 ft | 445 kts | 216° |
| 2026-04-18 09:31 | -19.96727 | -41.07775 | 35963 ft | 444 kts | 216° |
| 2026-04-18 09:32 | -20.02127 | -41.10982 | 35970 ft | 444 kts | 216° |
| 2026-04-18 09:32 | -20.07487 | -41.14164 | 35973 ft | 444 kts | 216° |
| 2026-04-18 09:33 | -20.12885 | -41.17372 | 35999 ft | 444 kts | 216° |
| 2026-04-18 09:33 | -20.18315 | -41.20600 | 35990 ft | 445 kts | 216° |
| 2026-04-18 09:34 | -20.23690 | -41.23803 | 35991 ft | 445 kts | 216° |
| 2026-04-18 09:34 | -20.29088 | -41.27019 | 35981 ft | 444 kts | 216° |
| 2026-04-18 09:35 | -20.34486 | -41.30242 | 35990 ft | 445 kts | 216° |
| 2026-04-18 09:35 | -20.39887 | -41.33468 | 35984 ft | 445 kts | 216° |
| 2026-04-18 09:36 | -20.44383 | -41.36154 | 35969 ft | 445 kts | 216° |
| 2026-04-18 09:36 | -20.49783 | -41.39381 | 35976 ft | 445 kts | 216° |
| 2026-04-18 09:37 | -20.55184 | -41.42613 | 35988 ft | 445 kts | 216° |
| 2026-04-18 09:37 | -20.60581 | -41.45845 | 35962 ft | 444 kts | 216° |
| 2026-04-18 09:38 | -20.65974 | -41.49078 | 35963 ft | 444 kts | 216° |
| 2026-04-18 09:38 | -20.71373 | -41.52315 | 35965 ft | 445 kts | 216° |
| 2026-04-18 09:39 | -20.76772 | -41.55555 | 35978 ft | 445 kts | 216° |
| 2026-04-18 09:39 | -20.82163 | -41.58793 | 35951 ft | 444 kts | 216° |
| 2026-04-18 09:40 | -20.87554 | -41.62035 | 35949 ft | 444 kts | 216° |
| 2026-04-18 09:40 | -20.92946 | -41.65279 | 35961 ft | 444 kts | 216° |
| 2026-04-18 09:41 | -20.98336 | -41.68527 | 35961 ft | 445 kts | 216° |
| 2026-04-18 09:41 | -21.03731 | -41.71779 | 35945 ft | 445 kts | 216° |
| 2026-04-18 09:42 | -21.09128 | -41.75035 | 35943 ft | 445 kts | 216° |
| 2026-04-18 09:42 | -21.14530 | -41.78296 | 35933 ft | 445 kts | 216° |
| 2026-04-18 09:43 | -21.19925 | -41.81555 | 35956 ft | 446 kts | 216° |
| 2026-04-18 09:43 | -21.25329 | -41.84824 | 35936 ft | 445 kts | 216° |
| 2026-04-18 09:44 | -21.30728 | -41.88090 | 35933 ft | 445 kts | 216° |
| 2026-04-18 09:44 | -21.36131 | -41.91362 | 35931 ft | 446 kts | 216° |
| 2026-04-18 09:45 | -21.41498 | -41.94616 | 35933 ft | 446 kts | 216° |
| 2026-04-18 09:45 | -21.46940 | -41.97919 | 35928 ft | 446 kts | 216° |
| 2026-04-18 09:46 | -21.52324 | -42.01188 | 35930 ft | 446 kts | 216° |
| 2026-04-18 09:46 | -21.57729 | -42.04474 | 35931 ft | 446 kts | 216° |
| 2026-04-18 09:47 | -21.60437 | -42.06123 | 35671 ft | 447 kts | 216° |
| 2026-04-18 09:47 | -21.63137 | -42.07769 | 35149 ft | 445 kts | 216° |
| 2026-04-18 09:47 | -21.65828 | -42.09407 | 34657 ft | 442 kts | 216° |
| 2026-04-18 09:47 | -21.68498 | -42.11032 | 34162 ft | 440 kts | 216° |
| 2026-04-18 09:48 | -21.71163 | -42.12656 | 33651 ft | 441 kts | 216° |
| 2026-04-18 09:48 | -21.73837 | -42.14289 | 33099 ft | 444 kts | 216° |
| 2026-04-18 09:48 | -21.76530 | -42.15936 | 32567 ft | 446 kts | 216° |
| 2026-04-18 09:48 | -21.79241 | -42.17592 | 32040 ft | 450 kts | 215° |
| 2026-04-18 09:49 | -21.81968 | -42.19254 | 31532 ft | 451 kts | 215° |
| 2026-04-18 09:49 | -21.84711 | -42.20928 | 31008 ft | 454 kts | 215° |
| 2026-04-18 09:49 | -21.87476 | -42.22601 | 30519 ft | 458 kts | 215° |
| 2026-04-18 09:49 | -21.90260 | -42.24277 | 30022 ft | 460 kts | 215° |
| 2026-04-18 09:50 | -21.93064 | -42.25969 | 29454 ft | 463 kts | 214° |
| 2026-04-18 09:50 | -21.95879 | -42.27671 | 28898 ft | 466 kts | 214° |
| 2026-04-18 09:50 | -21.98732 | -42.29395 | 28337 ft | 467 kts | 214° |
| 2026-04-18 09:50 | -22.01564 | -42.31106 | 27815 ft | 465 kts | 213° |
| 2026-04-18 09:51 | -22.04370 | -42.32805 | 27275 ft | 462 kts | 213° |
| 2026-04-18 09:51 | -22.07096 | -42.34607 | 26737 ft | 455 kts | 220° |
| 2026-04-18 09:51 | -22.09334 | -42.36971 | 26232 ft | 448 kts | 234° |
| 2026-04-18 09:51 | -22.10967 | -42.39804 | 25945 ft | 444 kts | 246° |
| 2026-04-18 09:52 | -22.11992 | -42.42930 | 25509 ft | 441 kts | 255° |
| 2026-04-18 09:52 | -22.12774 | -42.46120 | 25190 ft | 438 kts | 256° |
| 2026-04-18 09:52 | -22.13539 | -42.49300 | 24947 ft | 437 kts | 256° |
| 2026-04-18 09:52 | -22.14301 | -42.52479 | 24616 ft | 436 kts | 256° |
| 2026-04-18 09:53 | -22.15060 | -42.55645 | 24205 ft | 434 kts | 256° |
| 2026-04-18 09:53 | -22.15815 | -42.58796 | 23802 ft | 433 kts | 256° |
| 2026-04-18 09:53 | -22.16570 | -42.61941 | 23379 ft | 432 kts | 255° |
| 2026-04-18 09:53 | -22.17323 | -42.65079 | 22903 ft | 431 kts | 255° |
| 2026-04-18 09:54 | -22.18073 | -42.68203 | 22427 ft | 428 kts | 255° |
| 2026-04-18 09:54 | -22.18819 | -42.71311 | 21963 ft | 426 kts | 255° |
| 2026-04-18 09:54 | -22.19548 | -42.74355 | 21509 ft | 423 kts | 255° |
| 2026-04-18 09:54 | -22.20282 | -42.77422 | 21069 ft | 421 kts | 255° |
| 2026-04-18 09:55 | -22.21012 | -42.80477 | 20637 ft | 418 kts | 255° |
| 2026-04-18 09:55 | -22.21735 | -42.83508 | 20197 ft | 416 kts | 255° |
| 2026-04-18 09:55 | -22.22454 | -42.86517 | 19762 ft | 411 kts | 255° |
| 2026-04-18 09:55 | -22.23164 | -42.89490 | 19343 ft | 405 kts | 255° |
| 2026-04-18 09:56 | -22.23863 | -42.92420 | 18929 ft | 400 kts | 255° |
| 2026-04-18 09:56 | -22.24552 | -42.95314 | 18500 ft | 396 kts | 255° |
| 2026-04-18 09:56 | -22.25234 | -42.98186 | 18043 ft | 392 kts | 255° |
| 2026-04-18 09:56 | -22.25908 | -43.01025 | 17540 ft | 389 kts | 255° |
| 2026-04-18 09:57 | -22.26578 | -43.03847 | 17052 ft | 385 kts | 255° |
| 2026-04-18 09:57 | -22.27240 | -43.06634 | 16574 ft | 382 kts | 255° |
| 2026-04-18 09:57 | -22.27896 | -43.09403 | 16146 ft | 377 kts | 255° |
| 2026-04-18 09:57 | -22.28538 | -43.12109 | 15963 ft | 366 kts | 255° |
| 2026-04-18 09:58 | -22.29164 | -43.14754 | 15556 ft | 362 kts | 255° |
| 2026-04-18 09:58 | -22.29791 | -43.17401 | 15001 ft | 363 kts | 255° |
| 2026-04-18 09:58 | -22.30415 | -43.20047 | 14449 ft | 363 kts | 255° |
| 2026-04-18 09:58 | -22.31040 | -43.22694 | 13929 ft | 363 kts | 255° |
| 2026-04-18 09:59 | -22.31667 | -43.25347 | 13354 ft | 363 kts | 255° |
| 2026-04-18 09:59 | -22.32292 | -43.27992 | 12771 ft | 363 kts | 254° |
| 2026-04-18 09:59 | -22.32917 | -43.30643 | 12196 ft | 363 kts | 255° |
| 2026-04-18 10:00 | -22.34165 | -43.35941 | 11072 ft | 363 kts | 255° |
| 2026-04-18 10:00 | -22.34786 | -43.38588 | 10514 ft | 363 kts | 255° |
| 2026-04-18 10:00 | -22.35406 | -43.41226 | 10082 ft | 359 kts | 254° |
| 2026-04-18 10:00 | -22.36007 | -43.43794 | 9804 ft | 342 kts | 254° |
| 2026-04-18 10:01 | -22.36563 | -43.46165 | 9862 ft | 309 kts | 252° |
| 2026-04-18 10:01 | -22.37484 | -43.48114 | 9909 ft | 282 kts | 226° |
| 2026-04-18 10:01 | -22.39047 | -43.49335 | 9937 ft | 279 kts | 203° |
| 2026-04-18 10:01 | -22.40858 | -43.50085 | 9921 ft | 276 kts | 201° |
| 2026-04-18 10:02 | -22.42650 | -43.50810 | 9590 ft | 275 kts | 201° |
| 2026-04-18 10:02 | -22.44447 | -43.51548 | 9152 ft | 277 kts | 201° |
| 2026-04-18 10:02 | -22.46247 | -43.52293 | 8730 ft | 278 kts | 201° |
| 2026-04-18 10:02 | -22.48060 | -43.53047 | 8286 ft | 280 kts | 201° |
| 2026-04-18 10:03 | -22.49880 | -43.53808 | 7856 ft | 281 kts | 201° |
| 2026-04-18 10:03 | -22.51673 | -43.54558 | 7428 ft | 279 kts | 201° |
| 2026-04-18 10:03 | -22.53478 | -43.55312 | 7046 ft | 278 kts | 202° |
| 2026-04-18 10:03 | -22.55321 | -43.55946 | 6610 ft | 281 kts | 187° |
| 2026-04-18 10:04 | -22.57255 | -43.55694 | 6196 ft | 285 kts | 160° |
| 2026-04-18 10:04 | -22.59050 | -43.54776 | 5786 ft | 286 kts | 155° |
| 2026-04-18 10:04 | -22.60836 | -43.53814 | 5373 ft | 287 kts | 155° |
| 2026-04-18 10:04 | -22.62626 | -43.52858 | 4964 ft | 287 kts | 155° |
| 2026-04-18 10:05 | -22.64336 | -43.51737 | 4526 ft | 291 kts | 138° |
| 2026-04-18 10:05 | -22.65618 | -43.50038 | 4119 ft | 292 kts | 126° |
| 2026-04-18 10:05 | -22.66788 | -43.48229 | 3710 ft | 294 kts | 124° |
| 2026-04-18 10:05 | -22.67960 | -43.46407 | 3334 ft | 293 kts | 124° |
| 2026-04-18 10:06 | -22.69119 | -43.44628 | 3190 ft | 285 kts | 124° |
| 2026-04-18 10:06 | -22.70251 | -43.42905 | 3035 ft | 276 kts | 125° |
| 2026-04-18 10:06 | -22.71343 | -43.41260 | 3018 ft | 262 kts | 127° |
| 2026-04-18 10:06 | -22.72426 | -43.39722 | 2888 ft | 253 kts | 127° |
| 2026-04-18 10:07 | -22.73480 | -43.38190 | 2594 ft | 253 kts | 126° |
| 2026-04-18 10:07 | -22.74498 | -43.36651 | 2201 ft | 245 kts | 124° |
| 2026-04-18 10:07 | -22.75448 | -43.35193 | 1943 ft | 228 kts | 125° |
| 2026-04-18 10:07 | -22.76333 | -43.33839 | 1693 ft | 212 kts | 125° |
| 2026-04-18 10:08 | -22.77159 | -43.32581 | 1413 ft | 198 kts | 125° |
| 2026-04-18 10:08 | -22.77928 | -43.31412 | 1178 ft | 184 kts | 125° |
| 2026-04-18 10:08 | -22.78649 | -43.30315 | 927 ft | 172 kts | 125° |
| 2026-04-18 10:08 | -22.79322 | -43.29290 | 680 ft | 163 kts | 125° |
| 2026-04-18 10:09 | -22.79968 | -43.28293 | 488 ft | 161 kts | 126° |
| 2026-04-18 10:09 | -22.80622 | -43.27305 | 282 ft | 161 kts | 126° |
| 2026-04-18 10:09 | -22.81274 | -43.26317 | 52 ft | 161 kts | 126° |
| 2026-04-18 10:09 | -22.81879 | -43.25407 | 33 ft | 129 kts | 126° |
| 2026-04-18 10:10 | -22.82295 | -43.24783 | 27 ft | 78 kts | 125° |
| 2026-04-18 10:10 | -22.82539 | -43.24410 | 29 ft | 41 kts | 125° |
| 2026-04-18 10:10 | -22.82694 | -43.24175 | 31 ft | 37 kts | 126° |
| 2026-04-18 10:10 | -22.82821 | -43.23983 | 29 ft | 22 kts | 123° |
| 2026-04-18 10:11 | -22.82858 | -43.23838 | 27 ft | 17 kts | 58° |
| 2026-04-18 10:11 | -22.82765 | -43.23811 | 29 ft | 16 kts | 329° |
| 2026-04-18 10:11 | -22.82682 | -43.23901 | 29 ft | 16 kts | 324° |
| 2026-04-18 10:11 | -22.82609 | -43.24003 | 29 ft | 19 kts | 305° |
| 2026-04-18 10:12 | -22.82531 | -43.24127 | 29 ft | 20 kts | 304° |
| 2026-04-18 10:12 | -22.82484 | -43.24214 | 29 ft | 8 kts | 300° |
| 2026-04-18 10:12 | -22.82472 | -43.24236 | 29 ft | 0 kts | 302° |
| 2026-04-18 10:12 | -22.82472 | -43.24237 | 29 ft | 0 kts | 302° |
| 2026-04-18 10:14 | -22.82473 | -43.24235 | 29 ft | 4 kts | 303° |
| 2026-04-18 10:14 | -22.82425 | -43.24310 | 28 ft | 9 kts | 305° |
| 2026-04-18 10:14 | -22.82390 | -43.24368 | 27 ft | 9 kts | 306° |
| 2026-04-18 10:14 | -22.82315 | -43.24394 | 28 ft | 16 kts | 15° |
| 2026-04-18 10:15 | -22.82260 | -43.24363 | 28 ft | 8 kts | 34° |
| 2026-04-18 10:15 | -22.82218 | -43.24326 | 30 ft | 8 kts | 40° |
| 2026-04-18 10:15 | -22.82174 | -43.24303 | 30 ft | 9 kts | 33° |
| 2026-04-18 10:15 | -22.82152 | -43.24298 | 30 ft | 9 kts | 343° |
| 2026-04-18 10:16 | -22.82096 | -43.24350 | 30 ft | 16 kts | 308° |
| 2026-04-18 10:16 | -22.82032 | -43.24445 | 30 ft | 16 kts | 306° |
| 2026-04-18 10:16 | -22.81982 | -43.24520 | 30 ft | 8 kts | 303° |
| 2026-04-18 10:16 | -22.81967 | -43.24562 | 30 ft | 8 kts | 308° |
| 2026-04-18 10:17 | -22.81926 | -43.24596 | 30 ft | 8 kts | 336° |
| 2026-04-18 10:17 | -22.81879 | -43.24596 | 30 ft | 8 kts | 19° |
| 2026-04-18 10:17 | -22.81839 | -43.24569 | 30 ft | 8 kts | 32° |
| 2026-04-18 10:17 | -22.81795 | -43.24559 | 30 ft | 8 kts | 351° |
| 2026-04-18 10:18 | -22.81761 | -43.24575 | 30 ft | 16 kts | 297° |
| 2026-04-18 10:18 | -22.81718 | -43.24668 | 30 ft | 13 kts | 302° |
| 2026-04-18 10:18 | -22.81673 | -43.24741 | 30 ft | 11 kts | 304° |
| 2026-04-18 10:18 | -22.81665 | -43.24768 | 30 ft | 9 kts | 273° |
| 2026-04-18 10:19 | -22.81685 | -43.24809 | 30 ft | 8 kts | 226° |
| 2026-04-18 10:19 | -22.81694 | -43.24819 | 30 ft | 0 kts | 223° |